AF842 / F-GSQX 7700 Squawk Report (23rd of October, 2021)

Aircraft B77W Reg No. F-GSQX Age 14 years old
Model 777 Jet engines 2 First flight 11-06-07
Registered 29-06-07 Rollout 31-05-07 Delivered 29-06-07
Construction No. 32963 Line No. 0645 Series 328(ER)
ADSHEX 394A17 Airline name Air France Owner GIE Octave Bail
Airfield based Paris-Orly~Essonne~F First tracked N/A

Flight history for F-GSQX

Time Lat Lon Altitude Heading Speed Vertical Rate
2021-10-23 20:53:06 GMT 14.904770 -60.755180 7,475 220 300 -1152
2021-10-23 20:53:03 GMT 14.908121 -60.752335 7,525 220 300 -1216
2021-10-23 20:52:23 GMT 14.951523 -60.715317 8,350 220 303 -1216
2021-10-23 20:52:04 GMT 14.971573 -60.698162 8,725 220 304 -1216
2021-10-23 20:51:57 GMT 14.979401 -60.691513 8,875 220 305 -1216
2021-10-23 20:51:45 GMT 14.992172 -60.680573 9,100 220 306 -1216
2021-10-23 20:51:32 GMT 15.007371 -60.667583 9,375 220 307 -1216
2021-10-23 20:50:32 GMT 15.073847 -60.610687 10,400 220 332 -2176
2021-10-23 20:50:28 GMT 15.079834 -60.605598 10,575 220 332 -2176
2021-10-23 20:50:21 GMT 15.087708 -60.598850 10,825 220 337 -2368
2021-10-23 20:50:04 GMT 15.108856 -60.580734 11,500 220 350 -2560
2021-10-23 20:49:55 GMT 15.120725 -60.570667 11,650 220 355 -2304
2021-10-23 20:49:38 GMT 15.141348 -60.553207 12,300 220 383 -832
2021-10-23 20:49:32 GMT 15.149634 -60.546192 12,400 220 382 -832
2021-10-23 20:49:30 GMT 15.153717 -60.542713 12,450 220 388 -576
2021-10-23 20:49:17 GMT 15.170350 -60.528683 12,575 220 394 -640
2021-10-23 20:49:09 GMT 15.181988 -60.518826 12,725 220 400 -1536
2021-10-23 20:48:50 GMT 15.209061 -60.495495 13,325 221 403 -2048
2021-10-23 20:48:26 GMT 15.242432 -60.465473 14,275 222 408 -2048
2021-10-23 20:48:23 GMT 15.247860 -60.460560 14,225 222 410 -2048
2021-10-23 20:48:13 GMT 15.261658 -60.448174 14,550 222 411 -1984
2021-10-23 20:47:47 GMT 15.300522 -60.413193 15,475 222 418 -2048
2021-10-23 20:47:43 GMT 15.305649 -60.408566 15,600 222 418 -2048
2021-10-23 20:47:32 GMT 15.322952 -60.392956 16,000 222 421 -2048
2021-10-23 20:47:24 GMT 15.333050 -60.383705 16,225 222 422 -2112
2021-10-23 20:47:15 GMT 15.348319 -60.369724 16,600 222 425 -2176
2021-10-23 20:46:47 GMT 15.390106 -60.331902 17,525 221 431 -2112
2021-10-23 20:46:43 GMT 15.394639 -60.327888 17,625 221 431 -2112
2021-10-23 20:46:32 GMT 15.411530 -60.312870 18,025 221 433 -2112
2021-10-23 20:46:20 GMT 15.432067 -60.294491 18,500 222 435 -2112
2021-10-23 20:46:02 GMT 15.467285 -60.262756 19,300 222 439 -2112
2021-10-23 20:45:45 GMT 15.482995 -60.248631 19,675 221 442 -2176
2021-10-23 20:45:36 GMT 15.498093 -60.235195 20,000 221 443 -2048
2021-10-23 20:45:25 GMT 15.514837 -60.220284 20,375 221 447 -2048
2021-10-23 20:45:14 GMT 15.539520 -60.198139 20,925 222 450 -2112
2021-10-23 20:45:00 GMT 15.555450 -60.183781 21,300 222 452 -2112
2021-10-23 20:44:49 GMT 15.579712 -60.161858 21,825 222 457 -2048
2021-10-23 20:44:34 GMT 15.597153 -60.146149 22,200 222 459 -2112
2021-10-23 20:44:23 GMT 15.621552 -60.124222 22,725 221 463 -2112
2021-10-23 20:44:07 GMT 15.638397 -60.109238 23,075 221 466 -2048
2021-10-23 20:43:58 GMT 15.653412 -60.095985 23,375 221 470 -2048
2021-10-23 20:43:52 GMT 15.663208 -60.087410 23,575 221 471 -2112
2021-10-23 20:43:42 GMT 15.680563 -60.072113 23,950 221 473 -2112
2021-10-23 20:43:40 GMT 15.683449 -60.069614 24,000 221 475 -2112
2021-10-23 20:43:32 GMT 15.699234 -60.055752 24,350 221 479 -2112
2021-10-23 20:43:20 GMT 15.717525 -60.039696 24,725 221 480 -2112
2021-10-23 20:43:11 GMT 15.733887 -60.025295 25,050 221 484 -2112
2021-10-23 20:43:00 GMT 15.770176 -59.993298 25,825 221 490 -2176
2021-10-23 20:42:50 GMT 15.770176 -59.993298 25,825 221 492 -2176
2021-10-23 20:42:40 GMT 15.788773 -59.976871 26,200 221 495 -2176
2021-10-23 20:42:19 GMT 15.833908 -59.937119 27,125 221 503 -2176
2021-10-23 20:42:03 GMT 15.852434 -59.920807 27,525 221 507 -2240
2021-10-23 20:41:53 GMT 15.871613 -59.903934 27,900 221 509 -2240
2021-10-23 20:41:41 GMT 15.891258 -59.886623 28,325 221 512 -2304
2021-10-23 20:41:31 GMT 15.908901 -59.871174 28,675 221 516 -2304
2021-10-23 20:41:22 GMT 15.928253 -59.854141 29,075 221 518 -2304
2021-10-23 20:41:10 GMT 15.948441 -59.836361 29,500 221 521 -2240
2021-10-23 20:41:01 GMT 15.966533 -59.820457 29,850 221 524 -2240
2021-10-23 20:40:49 GMT 15.987350 -59.802151 30,275 221 527 -2176
2021-10-23 20:40:40 GMT 16.005478 -59.786247 30,625 221 530 -2048
2021-10-23 20:40:29 GMT 16.025391 -59.768661 31,050 221 532 -2496
2021-10-23 20:40:18 GMT 16.044342 -59.751892 31,525 221 532 -2944
2021-10-23 20:40:09 GMT 16.064758 -59.733727 32,050 221 531 -2944
2021-10-23 20:39:58 GMT 16.083115 -59.717438 32,550 221 530 -3200
2021-10-23 20:39:48 GMT 16.103851 -59.699081 33,150 221 528 -3264
2021-10-23 20:39:36 GMT 16.123444 -59.681782 33,750 221 526 -3328
2021-10-23 20:39:26 GMT 16.141617 -59.665718 34,300 221 524 -3456
2021-10-23 20:39:16 GMT 16.161215 -59.648453 34,850 221 522 -3008
2021-10-23 20:39:05 GMT 16.180534 -59.631287 35,300 221 522 -2368
2021-10-23 20:38:56 GMT 16.199713 -59.614319 35,625 221 525 -1664
2021-10-23 20:38:45 GMT 16.228109 -59.589157 35,925 221 526 -640
2021-10-23 20:38:30 GMT 16.247406 -59.572063 36,000 221 526 0
2021-10-23 20:38:19 GMT 16.266703 -59.555019 36,000 221 526 0
2021-10-23 20:38:09 GMT 16.285629 -59.538239 36,000 221 525 0
2021-10-23 20:37:58 GMT 16.314510 -59.512596 36,000 221 525 0
2021-10-23 20:37:42 GMT 16.333786 -59.495495 36,000 221 525 0
2021-10-23 20:37:32 GMT 16.354546 -59.477085 36,000 221 525 0
2021-10-23 20:37:22 GMT 16.372696 -59.460945 36,000 221 525 0
2021-10-23 20:37:12 GMT 16.392532 -59.443344 36,000 221 526 0
2021-10-23 20:37:00 GMT 16.411835 -59.426254 36,000 221 526 0
2021-10-23 20:36:51 GMT 16.431290 -59.408955 36,000 221 526 0
2021-10-23 20:36:40 GMT 16.458776 -59.384586 36,000 221 526 0
2021-10-23 20:36:15 GMT 16.508121 -59.340740 36,000 221 526 0
2021-10-23 20:35:58 GMT 16.527054 -59.323956 36,000 221 526 0
2021-10-23 20:35:49 GMT 16.546738 -59.306465 36,000 221 526 0
2021-10-23 20:35:38 GMT 16.565660 -59.289635 36,000 221 527 0
2021-10-23 20:35:28 GMT 16.584229 -59.273071 36,000 221 527 0
2021-10-23 20:35:17 GMT 16.604998 -59.254566 36,000 221 527 0
2021-10-23 20:35:06 GMT 16.623962 -59.237701 36,000 221 528 0
2021-10-23 20:34:57 GMT 16.643463 -59.220306 36,000 221 528 0
2021-10-23 20:34:45 GMT 16.662441 -59.203407 36,000 221 528 0
2021-10-23 20:34:36 GMT 16.681412 -59.186531 36,000 221 528 0
2021-10-23 20:34:24 GMT 16.701920 -59.168293 36,000 221 528 0
2021-10-23 20:34:15 GMT 16.720678 -59.151569 36,000 221 528 0
2021-10-23 20:34:04 GMT 16.740417 -59.134007 36,000 221 528 0
2021-10-23 20:33:53 GMT 16.759737 -59.116745 36,000 221 528 0
2021-10-23 20:33:43 GMT 16.780197 -59.098446 36,000 221 528 0
2021-10-23 20:33:23 GMT 16.826447 -59.057056 36,000 221 528 0
2021-10-23 20:33:06 GMT 16.847260 -59.038456 36,000 221 528 0
2021-10-23 20:32:57 GMT 16.866434 -59.021301 36,000 221 528 0
2021-10-23 20:32:46 GMT 16.885241 -59.004528 36,000 221 528 0
2021-10-23 20:32:35 GMT 16.904747 -58.987118 36,000 221 528 0
2021-10-23 20:32:26 GMT 16.924484 -58.969460 36,000 221 528 0
2021-10-23 20:32:03 GMT 16.967651 -58.930904 36,000 221 528 0
2021-10-23 20:31:54 GMT 16.981232 -58.918747 36,000 221 528 0
2021-10-23 20:31:43 GMT 17.002089 -58.900059 36,000 221 529 0
2021-10-23 20:31:30 GMT 17.026840 -58.877899 36,000 221 529 0
2021-10-23 20:30:17 GMT 17.161789 -58.756954 36,000 221 531 0
2021-10-23 20:29:56 GMT 17.202805 -58.720142 36,000 221 531 0
2021-10-23 20:29:55 GMT 17.204865 -58.718311 36,000 221 531 0
2021-10-23 20:29:14 GMT 17.282776 -58.648342 36,000 221 530 0
We lost coverage of the aircraft here for a total of 231 minutes
2021-10-23 16:38:22 GMT 34.891251 -30.194073 34,000 236 458 0
2021-10-23 16:36:07 GMT 35.062168 -29.910336 34,000 231 462 0
2021-10-23 16:35:57 GMT 35.075809 -29.890594 34,000 231 462 0
2021-10-23 16:35:56 GMT 35.077194 -29.888641 34,000 230 461 0
2021-10-23 16:33:18 GMT 35.292183 -29.576365 34,000 231 462 0
2021-10-23 16:29:57 GMT 35.565910 -29.174721 34,000 231 457 0
2021-10-23 16:29:50 GMT 35.576012 -29.159760 34,000 231 457 0
2021-10-23 16:29:38 GMT 35.592773 -29.134998 34,000 231 457 0
2021-10-23 16:26:31 GMT 35.843307 -28.762836 34,000 231 452 0
2021-10-23 16:26:21 GMT 35.856583 -28.742981 34,000 231 452 0
2021-10-23 16:26:07 GMT 35.874573 -28.716145 34,000 231 452 0
2021-10-23 16:26:00 GMT 35.884373 -28.701431 34,000 231 451 0
2021-10-23 16:25:51 GMT 35.896362 -28.683529 34,000 231 451 0
2021-10-23 16:25:32 GMT 35.922638 -28.644218 34,000 231 451 0
2021-10-23 16:24:58 GMT 35.966820 -28.577778 34,000 231 449 0
2021-10-23 16:24:12 GMT 36.027145 -28.487034 34,000 231 449 0
2021-10-23 16:24:05 GMT 36.037529 -28.471361 34,000 231 449 0
2021-10-23 16:23:51 GMT 36.054520 -28.445778 34,000 231 449 0
2021-10-23 16:23:43 GMT 36.065964 -28.428497 34,000 231 450 0
2021-10-23 16:23:35 GMT 36.079285 -28.408413 34,000 231 450 0
2021-10-23 16:23:25 GMT 36.090225 -28.391933 34,000 231 450 0
2021-10-23 16:23:06 GMT 36.113922 -28.356121 34,000 231 450 0
2021-10-23 16:23:02 GMT 36.119972 -28.346947 34,000 231 449 0
2021-10-23 16:22:54 GMT 36.129822 -28.332024 34,000 231 449 0
2021-10-23 16:22:51 GMT 36.133667 -28.326244 34,000 231 449 0
2021-10-23 16:22:48 GMT 36.138363 -28.319073 34,000 231 449 0
2021-10-23 16:22:42 GMT 36.146275 -28.307152 34,000 231 449 0
2021-10-23 16:22:32 GMT 36.159805 -28.286648 34,000 231 449 0
2021-10-23 16:22:22 GMT 36.172531 -28.267355 34,000 231 449 0
2021-10-23 16:22:11 GMT 36.186218 -28.246668 34,000 231 449 0
2021-10-23 16:22:01 GMT 36.199356 -28.226738 34,000 231 449 0
2021-10-23 16:21:52 GMT 36.211914 -28.207630 34,000 231 449 0
2021-10-23 16:21:41 GMT 36.225586 -28.186913 34,000 231 449 0
2021-10-23 16:21:32 GMT 36.238541 -28.167171 34,000 231 449 0
2021-10-23 16:21:20 GMT 36.254791 -28.142452 34,000 231 449 0
2021-10-23 16:21:09 GMT 36.267918 -28.122545 34,000 231 449 0
2021-10-23 16:21:02 GMT 36.277725 -28.107605 34,000 231 449 0
2021-10-23 16:20:52 GMT 36.291054 -28.087309 34,000 232 448 0
2021-10-23 16:20:42 GMT 36.303482 -28.068375 34,000 232 448 0
2021-10-23 16:20:31 GMT 36.317551 -28.046837 34,000 232 448 0
2021-10-23 16:20:21 GMT 36.330460 -28.027096 34,000 232 448 0
2021-10-23 16:20:12 GMT 36.343239 -28.007540 34,000 232 448 0
2021-10-23 16:20:02 GMT 36.356178 -27.987787 34,000 232 448 0
2021-10-23 16:19:52 GMT 36.369076 -27.968037 34,000 232 448 0
2021-10-23 16:19:42 GMT 36.382530 -27.947466 34,000 232 448 0
2021-10-23 16:19:34 GMT 36.391933 -27.933090 34,000 232 448 0
2021-10-23 16:19:32 GMT 36.395050 -27.928333 34,000 232 448 0
2021-10-23 16:19:25 GMT 36.403427 -27.915516 34,000 232 448 0
2021-10-23 16:19:21 GMT 36.410202 -27.905159 34,000 232 448 0
2021-10-23 16:19:11 GMT 36.422192 -27.886749 34,000 232 448 0
2021-10-23 16:19:02 GMT 36.434341 -27.868164 34,000 232 448 0
2021-10-23 16:18:52 GMT 36.448074 -27.847128 34,000 232 449 0
2021-10-23 16:18:42 GMT 36.460831 -27.827511 34,000 232 449 0
2021-10-23 16:18:35 GMT 36.469482 -27.814293 34,000 232 450 0
2021-10-23 16:18:32 GMT 36.473511 -27.808113 34,000 232 450 0
2021-10-23 16:18:29 GMT 36.477448 -27.802073 34,000 232 449 0
2021-10-23 16:18:21 GMT 36.488800 -27.784595 34,000 232 449 0
2021-10-23 16:18:18 GMT 36.491413 -27.780624 34,000 232 450 0
2021-10-23 16:18:12 GMT 36.500259 -27.766951 34,000 232 448 0
2021-10-23 16:18:08 GMT 36.504181 -27.760906 34,000 232 448 0
2021-10-23 16:18:02 GMT 36.513290 -27.746887 34,000 232 448 0
2021-10-23 16:17:58 GMT 36.517090 -27.741051 34,000 232 448 0
2021-10-23 16:17:51 GMT 36.527115 -27.725601 34,000 232 448 0
2021-10-23 16:17:49 GMT 36.529819 -27.721428 34,000 232 448 0
2021-10-23 16:17:42 GMT 36.538788 -27.707577 34,000 232 448 0
2021-10-23 16:17:38 GMT 36.543880 -27.699747 34,000 232 448 0
2021-10-23 16:17:32 GMT 36.551788 -27.687492 34,000 232 448 0
2021-10-23 16:17:29 GMT 36.555817 -27.681313 34,000 232 448 0
2021-10-23 16:17:22 GMT 36.564548 -27.667839 34,000 232 448 0
2021-10-23 16:17:17 GMT 36.570648 -27.658432 34,000 232 448 0
2021-10-23 16:17:12 GMT 36.577908 -27.647154 34,000 232 448 0
2021-10-23 16:17:07 GMT 36.583496 -27.638563 34,000 232 448 0
2021-10-23 16:17:02 GMT 36.590652 -27.627525 34,000 232 448 0
2021-10-23 16:16:52 GMT 36.604164 -27.606598 34,000 232 448 0
2021-10-23 16:16:44 GMT 36.613541 -27.592163 34,000 232 448 0
2021-10-23 16:16:42 GMT 36.616928 -27.586956 34,000 232 448 0
2021-10-23 16:16:32 GMT 36.629791 -27.567043 34,000 232 448 0
2021-10-23 16:16:25 GMT 36.637684 -27.554764 34,000 232 448 0
2021-10-23 16:16:22 GMT 36.643158 -27.546329 34,000 232 448 0
2021-10-23 16:16:16 GMT 36.649273 -27.536880 34,000 232 448 0
2021-10-23 16:16:12 GMT 36.655884 -27.526596 34,000 232 448 0
2021-10-23 16:16:07 GMT 36.661331 -27.518120 34,000 232 448 0
2021-10-23 16:16:02 GMT 36.669010 -27.506260 34,000 232 448 0
2021-10-23 16:15:57 GMT 36.674038 -27.498428 34,000 232 448 0
2021-10-23 16:15:52 GMT 36.681931 -27.486134 34,000 232 448 0
2021-10-23 16:15:46 GMT 36.687634 -27.477333 34,000 232 448 0
2021-10-23 16:15:42 GMT 36.695023 -27.465878 34,000 232 448 0
2021-10-23 16:15:36 GMT 36.700974 -27.456608 34,000 232 447 0
2021-10-23 16:15:31 GMT 36.708344 -27.445164 34,000 232 446 0
2021-10-23 16:15:27 GMT 36.713516 -27.437153 34,000 232 446 0
2021-10-23 16:15:22 GMT 36.720978 -27.425480 34,000 232 446 0
2021-10-23 16:15:16 GMT 36.726688 -27.416674 34,000 232 446 0
2021-10-23 16:15:12 GMT 36.733906 -27.405396 34,000 232 446 0
2021-10-23 16:15:07 GMT 36.739105 -27.397385 34,000 232 446 0
2021-10-23 16:15:02 GMT 36.746841 -27.385311 34,000 232 446 0
2021-10-23 16:14:56 GMT 36.752930 -27.375870 34,000 232 446 0
2021-10-23 16:14:52 GMT 36.759232 -27.366068 34,000 232 446 0
2021-10-23 16:14:46 GMT 36.766117 -27.355373 34,000 232 447 0
2021-10-23 16:14:41 GMT 36.773335 -27.344152 34,000 232 447 0
2021-10-23 16:14:36 GMT 36.779526 -27.334499 34,000 232 447 0
2021-10-23 16:14:32 GMT 36.785347 -27.325453 34,000 232 447 0
2021-10-23 16:14:22 GMT 36.798382 -27.305117 34,000 232 447 0
2021-10-23 16:14:12 GMT 36.811020 -27.285404 34,000 232 447 0
2021-10-23 16:14:02 GMT 36.824448 -27.264442 34,000 232 447 0
2021-10-23 16:13:57 GMT 36.829475 -27.256554 34,000 232 447 0
2021-10-23 16:13:51 GMT 36.836838 -27.245064 34,000 232 447 0
2021-10-23 16:13:47 GMT 36.842278 -27.236568 34,000 232 448 0
2021-10-23 16:13:41 GMT 36.850388 -27.223886 34,000 232 447 0
2021-10-23 16:13:36 GMT 36.856709 -27.213970 34,000 232 447 0
2021-10-23 16:13:31 GMT 36.863434 -27.203493 34,000 232 447 0
2021-10-23 16:13:26 GMT 36.869232 -27.194447 34,000 232 447 0
2021-10-23 16:13:20 GMT 36.877239 -27.181908 34,000 232 447 0
2021-10-23 16:13:16 GMT 36.882111 -27.174215 34,000 232 448 0
2021-10-23 16:13:11 GMT 36.888832 -27.163755 34,000 232 448 0
2021-10-23 16:13:07 GMT 36.894138 -27.155457 34,000 232 448 0
2021-10-23 16:13:01 GMT 36.901749 -27.143536 34,000 232 447 0
2021-10-23 16:12:57 GMT 36.907780 -27.133963 34,000 232 449 0
2021-10-23 16:12:51 GMT 36.914749 -27.123022 34,000 232 449 0
2021-10-23 16:12:46 GMT 36.920815 -27.113541 34,000 232 449 0
2021-10-23 16:12:41 GMT 36.927654 -27.102795 34,000 232 449 0
2021-10-23 16:12:37 GMT 36.933056 -27.094255 34,000 232 449 0
2021-10-23 16:12:31 GMT 36.940659 -27.082293 34,000 232 449 0
2021-10-23 16:12:26 GMT 36.947113 -27.072184 34,000 232 449 0
2021-10-23 16:12:21 GMT 36.953304 -27.062431 34,000 232 448 0
2021-10-23 16:12:19 GMT 36.956406 -27.057573 34,000 232 448 0
2021-10-23 16:12:17 GMT 36.958847 -27.053715 34,000 232 448 0
2021-10-23 16:12:10 GMT 36.968628 -27.038347 34,000 232 448 0
2021-10-23 16:12:07 GMT 36.972019 -27.033054 34,000 232 448 0
2021-10-23 16:12:01 GMT 36.980759 -27.019297 34,000 232 448 0
2021-10-23 16:11:57 GMT 36.984634 -27.013231 34,000 232 448 0
2021-10-23 16:11:51 GMT 36.991974 -27.001648 34,000 232 447 0
2021-10-23 16:11:47 GMT 36.997513 -26.992941 34,000 232 447 0
2021-10-23 16:11:41 GMT 37.004974 -26.981195 34,000 232 447 0
2021-10-23 16:11:37 GMT 37.011154 -26.971495 34,000 232 447 0
2021-10-23 16:11:31 GMT 37.017975 -26.960741 34,000 232 447 0
2021-10-23 16:11:29 GMT 37.020676 -26.956474 34,000 232 447 0
2021-10-23 16:11:27 GMT 37.024017 -26.951254 34,000 232 447 0
2021-10-23 16:11:21 GMT 37.030426 -26.941107 34,000 232 447 0
2021-10-23 16:11:17 GMT 37.036728 -26.931192 34,000 232 447 0
2021-10-23 16:11:10 GMT 37.047527 -26.914175 34,000 232 447 0
2021-10-23 16:11:07 GMT 37.049297 -26.911308 34,000 232 447 0
2021-10-23 16:11:01 GMT 37.056232 -26.900383 34,000 232 447 0
2021-10-23 16:10:59 GMT 37.059444 -26.895308 34,000 232 447 0
2021-10-23 16:10:57 GMT 37.062008 -26.891247 34,000 232 447 0
2021-10-23 16:10:51 GMT 37.069687 -26.879128 34,000 232 447 0
2021-10-23 16:10:49 GMT 37.072128 -26.875246 34,000 232 447 0
2021-10-23 16:10:47 GMT 37.075226 -26.870409 34,000 232 447 0
2021-10-23 16:10:41 GMT 37.082394 -26.859064 34,000 232 447 0
2021-10-23 16:10:39 GMT 37.084808 -26.855204 34,000 232 447 0
2021-10-23 16:10:37 GMT 37.087891 -26.850348 34,000 232 447 0
2021-10-23 16:10:31 GMT 37.094833 -26.839424 34,000 232 447 0
2021-10-23 16:10:29 GMT 37.098129 -26.834166 34,000 232 447 0
2021-10-23 16:10:27 GMT 37.100597 -26.830345 34,000 232 447 0
2021-10-23 16:10:18 GMT 37.111351 -26.813269 34,000 232 447 0
2021-10-23 16:10:16 GMT 37.114655 -26.808043 34,000 232 447 0
2021-10-23 16:10:09 GMT 37.123993 -26.793200 34,000 232 447 0
2021-10-23 16:10:06 GMT 37.126434 -26.789326 34,000 232 447 0
2021-10-23 16:09:59 GMT 37.136032 -26.774149 34,000 232 447 0
2021-10-23 16:09:56 GMT 37.139236 -26.769066 34,000 232 447 0
2021-10-23 16:09:51 GMT 37.146423 -26.757669 34,000 232 447 0
2021-10-23 16:09:48 GMT 37.149525 -26.752785 34,000 232 447 0
2021-10-23 16:09:46 GMT 37.152328 -26.748320 34,000 232 447 0
2021-10-23 16:09:41 GMT 37.158741 -26.738155 34,000 232 447 0
2021-10-23 16:09:39 GMT 37.161804 -26.733244 34,000 232 447 0
2021-10-23 16:09:36 GMT 37.164871 -26.728392 34,000 232 447 0
2021-10-23 16:09:31 GMT 37.171684 -26.717615 34,000 232 447 0
2021-10-23 16:09:28 GMT 37.175400 -26.711679 34,000 232 447 0
2021-10-23 16:09:26 GMT 37.178108 -26.707405 34,000 232 447 0
2021-10-23 16:09:21 GMT 37.184372 -26.697420 34,000 232 447 0
2021-10-23 16:09:16 GMT 37.190769 -26.687223 34,000 232 447 0
2021-10-23 16:09:11 GMT 37.197472 -26.676657 34,000 232 447 0
2021-10-23 16:09:08 GMT 37.201199 -26.670746 34,000 232 447 0
2021-10-23 16:09:06 GMT 37.203598 -26.666857 34,000 232 447 0
2021-10-23 16:08:59 GMT 37.213348 -26.651400 34,000 232 447 0
2021-10-23 16:08:56 GMT 37.217102 -26.645470 34,000 232 447 0
2021-10-23 16:08:51 GMT 37.223236 -26.635710 34,000 232 448 0
2021-10-23 16:08:49 GMT 37.226440 -26.630568 34,000 232 448 0
2021-10-23 16:08:44 GMT 37.233364 -26.619576 34,000 232 448 0
2021-10-23 16:08:41 GMT 37.236191 -26.615082 34,000 232 448 0
2021-10-23 16:08:39 GMT 37.239136 -26.610378 34,000 232 448 0
2021-10-23 16:08:35 GMT 37.244537 -26.601841 34,000 232 448 0
2021-10-23 16:08:31 GMT 37.249004 -26.594675 34,000 232 448 0
2021-10-23 16:08:29 GMT 37.251938 -26.589958 34,000 232 448 0
2021-10-23 16:08:26 GMT 37.255150 -26.584885 34,000 232 448 0
2021-10-23 16:08:21 GMT 37.261780 -26.574291 34,000 232 448 0
2021-10-23 16:08:19 GMT 37.264984 -26.569149 34,000 232 447 0
2021-10-23 16:08:16 GMT 37.267532 -26.565062 34,000 232 447 0
2021-10-23 16:08:11 GMT 37.274330 -26.554255 34,000 232 447 0
2021-10-23 16:08:09 GMT 37.277775 -26.548759 34,000 232 447 0
2021-10-23 16:08:06 GMT 37.280708 -26.544043 34,000 232 447 0
2021-10-23 16:08:04 GMT 37.284664 -26.537714 34,000 232 447 0
2021-10-23 16:08:01 GMT 37.286991 -26.534073 34,000 232 447 0
2021-10-23 16:07:59 GMT 37.290436 -26.528580 34,000 232 447 0
2021-10-23 16:07:56 GMT 37.293137 -26.524281 34,000 232 447 0
2021-10-23 16:07:51 GMT 37.300026 -26.513233 34,000 232 447 0
2021-10-23 16:07:49 GMT 37.302979 -26.508549 34,000 232 447 0
2021-10-23 16:07:46 GMT 37.306313 -26.503263 34,000 232 448 0
2021-10-23 16:07:41 GMT 37.312691 -26.493053 34,000 232 448 0
2021-10-23 16:07:39 GMT 37.316254 -26.487335 34,000 232 448 0
2021-10-23 16:07:34 GMT 37.323669 -26.475473 34,000 232 448 0
2021-10-23 16:07:31 GMT 37.325584 -26.472395 34,000 232 448 0
2021-10-23 16:07:28 GMT 37.329029 -26.466900 34,000 232 448 0
2021-10-23 16:07:26 GMT 37.331963 -26.462183 34,000 232 448 0
2021-10-23 16:07:20 GMT 37.338898 -26.451138 34,000 232 448 0
2021-10-23 16:07:18 GMT 37.341843 -26.446487 34,000 232 448 0
2021-10-23 16:07:16 GMT 37.344902 -26.441584 34,000 232 448 0
2021-10-23 16:07:11 GMT 37.350906 -26.431936 34,000 232 448 0
2021-10-23 16:07:08 GMT 37.354340 -26.426443 34,000 232 448 0
2021-10-23 16:07:06 GMT 37.357517 -26.421343 34,000 232 448 0
2021-10-23 16:07:03 GMT 37.362408 -26.413521 34,000 232 448 0
2021-10-23 16:07:00 GMT 37.364689 -26.409880 34,000 232 448 0
2021-10-23 16:06:58 GMT 37.367249 -26.405758 34,000 232 448 0
2021-10-23 16:06:55 GMT 37.370911 -26.399855 34,000 232 448 0
2021-10-23 16:06:51 GMT 37.376930 -26.390236 34,000 232 448 0
2021-10-23 16:06:48 GMT 37.380005 -26.385279 34,000 232 448 0
2021-10-23 16:06:46 GMT 37.383316 -26.379986 34,000 232 448 0
2021-10-23 16:06:41 GMT 37.389679 -26.369699 34,000 232 448 0
2021-10-23 16:06:38 GMT 37.392990 -26.364382 34,000 232 448 0
2021-10-23 16:06:36 GMT 37.396065 -26.359486 34,000 232 448 0
2021-10-23 16:06:30 GMT 37.403046 -26.348200 34,000 232 448 0
2021-10-23 16:06:28 GMT 37.405746 -26.343870 34,000 232 448 0
2021-10-23 16:06:26 GMT 37.408401 -26.339605 34,000 232 448 0
2021-10-23 16:06:21 GMT 37.414948 -26.329144 34,000 232 448 0
2021-10-23 16:06:18 GMT 37.418503 -26.323421 34,000 232 448 0
2021-10-23 16:06:16 GMT 37.421585 -26.318508 34,000 232 448 0
2021-10-23 16:06:11 GMT 37.428558 -26.307180 34,000 233 448 0
2021-10-23 16:06:08 GMT 37.431015 -26.303314 34,000 233 447 0
2021-10-23 16:06:05 GMT 37.434795 -26.297150 34,000 233 447 0
2021-10-23 16:06:01 GMT 37.442322 -26.285082 34,000 233 447 0
2021-10-23 16:05:58 GMT 37.443604 -26.282978 34,000 233 447 0
2021-10-23 16:05:55 GMT 37.447449 -26.276842 34,000 233 447 0
2021-10-23 16:05:51 GMT 37.453789 -26.266579 34,000 233 447 0
2021-10-23 16:05:48 GMT 37.456879 -26.261707 34,000 233 447 0
2021-10-23 16:05:46 GMT 37.459934 -26.256786 34,000 233 447 0
2021-10-23 16:05:41 GMT 37.466034 -26.246922 34,000 233 447 0
2021-10-23 16:05:38 GMT 37.469238 -26.241838 34,000 233 447 0
2021-10-23 16:05:36 GMT 37.472397 -26.236696 34,000 233 447 0
2021-10-23 16:05:31 GMT 37.478786 -26.226456 34,000 233 447 0
2021-10-23 16:05:29 GMT 37.481441 -26.222157 34,000 233 447 0
2021-10-23 16:05:26 GMT 37.485119 -26.216185 34,000 233 447 0
2021-10-23 16:05:20 GMT 37.492493 -26.204264 34,000 233 448 0
2021-10-23 16:05:18 GMT 37.494522 -26.201019 34,000 233 448 0
2021-10-23 16:05:16 GMT 37.497734 -26.195885 34,000 233 448 0
2021-10-23 16:05:10 GMT 37.505604 -26.183107 34,000 233 447 0
2021-10-23 16:05:08 GMT 37.507507 -26.180069 34,000 233 447 0
2021-10-23 16:05:04 GMT 37.512497 -26.172064 34,000 233 447 0
2021-10-23 16:05:01 GMT 37.517426 -26.164061 34,000 233 447 0
2021-10-23 16:04:58 GMT 37.520592 -26.158924 34,000 233 447 0
2021-10-23 16:04:56 GMT 37.523525 -26.154207 34,000 233 447 0
2021-10-23 16:04:51 GMT 37.529762 -26.144117 34,000 233 447 0
2021-10-23 16:04:48 GMT 37.532928 -26.138983 34,000 233 447 0
2021-10-23 16:04:46 GMT 37.536095 -26.133846 34,000 233 446 0
2021-10-23 16:04:41 GMT 37.542332 -26.123816 34,000 233 446 0
2021-10-23 16:04:38 GMT 37.548798 -26.113333 34,000 233 446 0
2021-10-23 16:04:36 GMT 37.548798 -26.113333 34,000 233 446 0
2021-10-23 16:04:31 GMT 37.555412 -26.102680 34,000 233 446 0
2021-10-23 16:04:28 GMT 37.558578 -26.097546 34,000 233 446 0
2021-10-23 16:04:26 GMT 37.561512 -26.092829 34,000 233 446 0
2021-10-23 16:04:21 GMT 37.567978 -26.082361 34,000 233 446 0
2021-10-23 16:04:18 GMT 37.570915 -26.077662 34,000 233 446 0
2021-10-23 16:04:15 GMT 37.575211 -26.070675 34,000 233 446 0
2021-10-23 16:04:08 GMT 37.584087 -26.056347 34,000 233 446 0
2021-10-23 16:04:04 GMT 37.588047 -26.050016 34,000 233 446 0
2021-10-23 16:04:01 GMT 37.593212 -26.041597 34,000 233 446 0
2021-10-23 16:03:58 GMT 37.596497 -26.036255 34,000 233 446 0
2021-10-23 16:03:54 GMT 37.600937 -26.029066 34,000 233 446 0
2021-10-23 16:03:50 GMT 37.607529 -26.018431 34,000 233 446 0
2021-10-23 16:03:48 GMT 37.609406 -26.015333 34,000 233 446 0
2021-10-23 16:03:45 GMT 37.612701 -26.010015 34,000 233 446 0
2021-10-23 16:03:40 GMT 37.619423 -25.999086 34,000 233 446 0
2021-10-23 16:03:38 GMT 37.622074 -25.994787 34,000 233 446 0
2021-10-23 16:03:34 GMT 37.627010 -25.986786 34,000 233 446 0
2021-10-23 16:03:30 GMT 37.631897 -25.978785 34,000 233 446 0
2021-10-23 16:03:28 GMT 37.634830 -25.974068 34,000 233 446 0
2021-10-23 16:03:25 GMT 37.637970 -25.968933 34,000 233 446 0
2021-10-23 16:03:20 GMT 37.644287 -25.958706 34,000 233 446 0
2021-10-23 16:03:18 GMT 37.647076 -25.954185 34,000 233 446 0
2021-10-23 16:03:14 GMT 37.652008 -25.946184 34,000 233 446 0
2021-10-23 16:03:10 GMT 37.657288 -25.937551 34,000 233 444 0
2021-10-23 16:03:08 GMT 37.659805 -25.933460 34,000 233 444 0
2021-10-23 16:03:05 GMT 37.663601 -25.927317 34,000 233 444 0
2021-10-23 16:02:58 GMT 37.672165 -25.913345 34,000 233 444 0
2021-10-23 16:02:55 GMT 37.677425 -25.904747 34,000 233 444 0
2021-10-23 16:02:50 GMT 37.682362 -25.896746 34,000 233 444 0
2021-10-23 16:02:48 GMT 37.684734 -25.892864 34,000 233 444 0
2021-10-23 16:02:45 GMT 37.689438 -25.885283 34,000 233 444 0
2021-10-23 16:02:41 GMT 37.694458 -25.877069 34,000 233 444 0
2021-10-23 16:02:35 GMT 37.703121 -25.862890 34,000 233 444 0
2021-10-23 16:02:30 GMT 37.708057 -25.854891 34,000 233 444 0
2021-10-23 16:02:28 GMT 37.710571 -25.850773 34,000 233 444 0
2021-10-23 16:02:24 GMT 37.715607 -25.842590 34,000 233 444 0
2021-10-23 16:02:20 GMT 37.720367 -25.834818 34,000 233 444 0
2021-10-23 16:02:18 GMT 37.723160 -25.830259 34,000 233 444 0
2021-10-23 16:02:15 GMT 37.726910 -25.824141 34,000 233 444 0
2021-10-23 16:02:11 GMT 37.732452 -25.815125 34,000 233 444 0
2021-10-23 16:02:08 GMT 37.735474 -25.810217 34,000 233 444 0
2021-10-23 16:02:05 GMT 37.739136 -25.804255 34,000 233 444 0
2021-10-23 16:02:00 GMT 37.746140 -25.792801 34,000 233 444 0
2021-10-23 16:01:58 GMT 37.748184 -25.789511 34,000 233 444 0
2021-10-23 16:01:55 GMT 37.751816 -25.783539 34,000 233 444 0
2021-10-23 16:01:51 GMT 37.757450 -25.774343 34,000 233 444 0
2021-10-23 16:01:48 GMT 37.760616 -25.769209 34,000 233 444 0
2021-10-23 16:01:45 GMT 37.764359 -25.763056 34,000 233 444 0
2021-10-23 16:01:41 GMT 37.769878 -25.754044 34,000 233 444 0
2021-10-23 16:01:38 GMT 37.772919 -25.749090 34,000 233 444 0
2021-10-23 16:01:34 GMT 37.777420 -25.741682 34,000 233 444 0
2021-10-23 16:01:31 GMT 37.782532 -25.733311 34,000 233 444 0
2021-10-23 16:01:28 GMT 37.790314 -25.720572 34,000 233 445 0
2021-10-23 16:01:24 GMT 37.790314 -25.720572 34,000 233 444 0
2021-10-23 16:01:20 GMT 37.795341 -25.712307 34,000 233 445 0
2021-10-23 16:01:18 GMT 37.798096 -25.707832 34,000 233 445 0
2021-10-23 16:01:14 GMT 37.802605 -25.700424 34,000 233 445 0
2021-10-23 16:01:10 GMT 37.808121 -25.691353 34,000 233 445 0
2021-10-23 16:01:08 GMT 37.810890 -25.686811 34,000 233 445 0
2021-10-23 16:01:05 GMT 37.814800 -25.680483 34,000 233 445 0
2021-10-23 16:01:00 GMT 37.821041 -25.670153 34,000 233 445 0
2021-10-23 16:00:58 GMT 37.823322 -25.666451 34,000 233 445 0
2021-10-23 16:00:55 GMT 37.827324 -25.659883 34,000 233 445 0
2021-10-23 16:00:50 GMT 37.833344 -25.649979 34,000 233 445 0
2021-10-23 16:00:48 GMT 37.835751 -25.646090 34,000 233 445 0
2021-10-23 16:00:44 GMT 37.840668 -25.638058 34,000 233 445 0
2021-10-23 16:00:40 GMT 37.845665 -25.629789 34,000 233 445 0
2021-10-23 16:00:38 GMT 37.848831 -25.624655 34,000 233 446 0
2021-10-23 16:00:35 GMT 37.852844 -25.618073 34,000 233 446 0
2021-10-23 16:00:30 GMT 37.858521 -25.608780 34,000 233 446 0
2021-10-23 16:00:28 GMT 37.861027 -25.604652 34,000 233 446 0
2021-10-23 16:00:24 GMT 37.866196 -25.596174 34,000 233 446 0
2021-10-23 16:00:20 GMT 37.871613 -25.587275 34,000 233 446 0
2021-10-23 16:00:17 GMT 37.874359 -25.582718 34,000 233 446 0
2021-10-23 16:00:14 GMT 37.878391 -25.576113 34,000 233 446 0
2021-10-23 16:00:11 GMT 37.883419 -25.567871 34,000 233 446 0
2021-10-23 16:00:08 GMT 37.886585 -25.562677 34,000 233 446 0
2021-10-23 16:00:01 GMT 37.896011 -25.547188 34,000 233 446 0
2021-10-23 15:59:58 GMT 37.899296 -25.541840 34,000 233 446 0
2021-10-23 15:59:54 GMT 37.903671 -25.534555 34,000 233 447 0
2021-10-23 15:59:51 GMT 37.908325 -25.526913 34,000 233 447 0
2021-10-23 15:59:48 GMT 37.911491 -25.521717 34,000 233 447 0
2021-10-23 15:59:44 GMT 37.916519 -25.513468 34,000 233 447 0
2021-10-23 15:59:38 GMT 37.924198 -25.500820 34,000 233 447 0
2021-10-23 15:59:35 GMT 37.928345 -25.493954 34,000 233 447 0
2021-10-23 15:59:30 GMT 37.933231 -25.485893 34,000 233 447 0
2021-10-23 15:59:28 GMT 37.936863 -25.479862 34,000 233 447 0
2021-10-23 15:59:22 GMT 37.943161 -25.469522 34,000 233 447 0
2021-10-23 15:59:20 GMT 37.946171 -25.464518 34,000 233 447 0
2021-10-23 15:59:18 GMT 37.949707 -25.458712 34,000 233 447 0
2021-10-23 15:59:13 GMT 37.954227 -25.451262 34,000 233 447 0
2021-10-23 15:59:08 GMT 37.961884 -25.438608 34,000 233 447 0
2021-10-23 15:59:04 GMT 37.966507 -25.430954 34,000 233 447 0
2021-10-23 15:59:00 GMT 37.971031 -25.423498 34,000 233 447 0
2021-10-23 15:58:58 GMT 37.974564 -25.417688 34,000 233 447 0
2021-10-23 15:58:53 GMT 37.980343 -25.408092 34,000 233 447 0
2021-10-23 15:58:50 GMT 37.984020 -25.402122 34,000 233 447 0
2021-10-23 15:58:47 GMT 37.987885 -25.395674 34,000 233 447 0
2021-10-23 15:58:44 GMT 37.991684 -25.389463 34,000 233 447 0
2021-10-23 15:58:40 GMT 37.996078 -25.382158 34,000 233 447 0
2021-10-23 15:58:38 GMT 37.999847 -25.375971 34,000 233 447 0
2021-10-23 15:58:34 GMT 38.004364 -25.368484 34,000 233 446 0
2021-10-23 15:58:30 GMT 38.008759 -25.361179 34,000 233 446 0
2021-10-23 15:58:28 GMT 38.012276 -25.355371 34,000 233 446 0
2021-10-23 15:58:24 GMT 38.016907 -25.347679 34,000 233 446 0
2021-10-23 15:58:18 GMT 38.025192 -25.333946 34,000 233 446 0
2021-10-23 15:58:14 GMT 38.029408 -25.326891 34,000 233 446 0
2021-10-23 15:58:10 GMT 38.033936 -25.319395 34,000 233 446 0
2021-10-23 15:58:08 GMT 38.037460 -25.313576 34,000 233 446 0
2021-10-23 15:58:04 GMT 38.041946 -25.306129 34,000 233 446 0
2021-10-23 15:58:00 GMT 38.046616 -25.298416 34,000 233 446 0
2021-10-23 15:57:58 GMT 38.050003 -25.292807 34,000 233 446 0
2021-10-23 15:57:54 GMT 38.054352 -25.285561 34,000 233 446 0
2021-10-23 15:57:50 GMT 38.059525 -25.277027 34,000 233 446 0
2021-10-23 15:57:47 GMT 38.063019 -25.271181 34,000 233 446 0
2021-10-23 15:57:44 GMT 38.066883 -25.264732 34,000 233 446 0
2021-10-23 15:57:40 GMT 38.071564 -25.257042 34,000 233 446 0
2021-10-23 15:57:38 GMT 38.075180 -25.251022 34,000 233 446 0
2021-10-23 15:57:34 GMT 38.079575 -25.243776 34,000 233 446 0
2021-10-23 15:57:30 GMT 38.084473 -25.235655 34,000 233 446 0
2021-10-23 15:57:28 GMT 38.087952 -25.229811 34,000 233 447 0
2021-10-23 15:57:22 GMT 38.093994 -25.219816 34,000 233 447 0
2021-10-23 15:57:19 GMT 38.097233 -25.214399 34,000 233 447 0
2021-10-23 15:57:13 GMT 38.105289 -25.201084 34,000 233 447 0
2021-10-23 15:57:09 GMT 38.110409 -25.192547 34,000 233 447 0
2021-10-23 15:57:03 GMT 38.118073 -25.179846 34,000 233 447 0
2021-10-23 15:57:00 GMT 38.121689 -25.173767 34,000 233 447 0
2021-10-23 15:56:52 GMT 38.131962 -25.156721 34,000 233 447 0
2021-10-23 15:56:50 GMT 38.134369 -25.152731 34,000 233 447 0
2021-10-23 15:56:42 GMT 38.144485 -25.135883 34,000 233 447 0
2021-10-23 15:56:40 GMT 38.147003 -25.131693 34,000 233 447 0
2021-10-23 15:56:30 GMT 38.159409 -25.111065 34,000 233 446 0
2021-10-23 15:56:20 GMT 38.172272 -25.089560 34,000 233 446 0
2021-10-23 15:56:10 GMT 38.184891 -25.068472 34,000 233 446 0
2021-10-23 15:56:00 GMT 38.197403 -25.047602 34,000 233 447 0
2021-10-23 15:55:49 GMT 38.210037 -25.026445 34,000 233 447 0
2021-10-23 15:55:42 GMT 38.219513 -25.010551 34,000 233 447 0
2021-10-23 15:55:40 GMT 38.221992 -25.006376 34,000 233 447 0
2021-10-23 15:55:38 GMT 38.224648 -25.002016 34,000 233 447 0
2021-10-23 15:55:30 GMT 38.234379 -24.985657 34,000 233 447 0
2021-10-23 15:55:28 GMT 38.237263 -24.980881 34,000 233 447 0
2021-10-23 15:55:20 GMT 38.247131 -24.964340 34,000 233 447 0
2021-10-23 15:55:18 GMT 38.249496 -24.960354 34,000 233 447 0
2021-10-23 15:55:10 GMT 38.259747 -24.943205 34,000 233 446 0
2021-10-23 15:55:07 GMT 38.262497 -24.938614 34,000 233 446 0
2021-10-23 15:55:00 GMT 38.272083 -24.922485 34,000 233 446 0
2021-10-23 15:54:50 GMT 38.284698 -24.901407 34,000 233 446 0
2021-10-23 15:54:40 GMT 38.296875 -24.880936 34,000 233 445 0
2021-10-23 15:54:33 GMT 38.305344 -24.866735 34,000 233 445 0
2021-10-23 15:54:30 GMT 38.309830 -24.859257 34,000 233 445 0
2021-10-23 15:54:20 GMT 38.322220 -24.838356 34,000 233 444 0
2021-10-23 15:54:16 GMT 38.326832 -24.830654 34,000 233 444 0
2021-10-23 15:54:10 GMT 38.334278 -24.818115 34,000 233 445 0
2021-10-23 15:54:06 GMT 38.339725 -24.808920 34,000 233 446 0
2021-10-23 15:54:00 GMT 38.346569 -24.797457 34,000 234 445 0
2021-10-23 15:53:55 GMT 38.352760 -24.787006 34,000 234 445 0
2021-10-23 15:53:50 GMT 38.359093 -24.776379 34,000 234 445 0
2021-10-23 15:53:46 GMT 38.364441 -24.767391 34,000 234 445 0
2021-10-23 15:53:40 GMT 38.371891 -24.754824 34,000 234 445 0
2021-10-23 15:53:36 GMT 38.376617 -24.746880 34,000 234 445 0
2021-10-23 15:53:30 GMT 38.383904 -24.734583 34,000 234 445 0
2021-10-23 15:53:25 GMT 38.389721 -24.724731 34,000 234 445 0
2021-10-23 15:53:20 GMT 38.396805 -24.712811 34,000 234 445 0
2021-10-23 15:53:16 GMT 38.401733 -24.704491 34,000 234 445 0
2021-10-23 15:53:10 GMT 38.409180 -24.691893 34,000 234 445 0
2021-10-23 15:53:05 GMT 38.414490 -24.682922 34,000 234 445 0
2021-10-23 15:53:00 GMT 38.421295 -24.671412 34,000 234 445 0
2021-10-23 15:52:55 GMT 38.427612 -24.660725 34,000 234 445 0
2021-10-23 15:52:50 GMT 38.433792 -24.650274 34,000 234 445 0
2021-10-23 15:52:45 GMT 38.439487 -24.640625 34,000 234 445 0
2021-10-23 15:52:40 GMT 38.445831 -24.629974 34,000 234 445 0
2021-10-23 15:52:34 GMT 38.451874 -24.619705 34,000 234 445 0
2021-10-23 15:52:30 GMT 38.458199 -24.609009 34,000 234 445 0
2021-10-23 15:52:24 GMT 38.465286 -24.597075 34,000 234 445 0
2021-10-23 15:52:20 GMT 38.470490 -24.588257 34,000 234 445 0
2021-10-23 15:52:14 GMT 38.476913 -24.577332 34,000 234 446 0
2021-10-23 15:52:10 GMT 38.483105 -24.566833 34,000 234 446 0
2021-10-23 15:52:04 GMT 38.489159 -24.556580 34,000 234 446 0
2021-10-23 15:52:00 GMT 38.495499 -24.545845 34,000 234 446 0
2021-10-23 15:51:54 GMT 38.501678 -24.535337 34,000 234 445 0
2021-10-23 15:51:50 GMT 38.508335 -24.524048 34,000 234 445 0
2021-10-23 15:51:44 GMT 38.514065 -24.514343 34,000 234 445 0
2021-10-23 15:51:40 GMT 38.520218 -24.503870 34,000 234 445 0
2021-10-23 15:51:34 GMT 38.526539 -24.493164 34,000 234 445 0
2021-10-23 15:51:30 GMT 38.532806 -24.482435 34,000 234 445 0
2021-10-23 15:51:25 GMT 38.538116 -24.473419 34,000 234 445 0
2021-10-23 15:51:20 GMT 38.545158 -24.461487 34,000 234 445 0
2021-10-23 15:51:15 GMT 38.550747 -24.452026 34,000 234 445 0
2021-10-23 15:51:10 GMT 38.557636 -24.440247 34,000 234 445 0
2021-10-23 15:51:04 GMT 38.563934 -24.429535 34,000 234 445 0
2021-10-23 15:51:00 GMT 38.569878 -24.419434 34,000 234 445 0
2021-10-23 15:50:55 GMT 38.575333 -24.410128 34,000 234 446 0
2021-10-23 15:50:50 GMT 38.582123 -24.398560 34,000 234 446 0
2021-10-23 15:50:45 GMT 38.587894 -24.388672 34,000 234 446 0
2021-10-23 15:50:40 GMT 38.594330 -24.377707 34,000 234 446 0
2021-10-23 15:50:35 GMT 38.600651 -24.366943 34,000 234 446 0
2021-10-23 15:50:30 GMT 38.607307 -24.355530 34,000 234 446 0
2021-10-23 15:50:25 GMT 38.612640 -24.346479 34,000 234 446 0
2021-10-23 15:50:20 GMT 38.619186 -24.335255 34,000 234 446 0
2021-10-23 15:50:14 GMT 38.625870 -24.323851 34,000 234 448 0
2021-10-23 15:50:10 GMT 38.631653 -24.313904 34,000 234 448 0
2021-10-23 15:50:04 GMT 38.638367 -24.302473 34,000 234 448 0
2021-10-23 15:50:00 GMT 38.644176 -24.292542 34,000 234 448 0
2021-10-23 15:49:55 GMT 38.650276 -24.282166 34,000 234 448 0
2021-10-23 15:49:50 GMT 38.656860 -24.270889 34,000 234 448 0
2021-10-23 15:49:44 GMT 38.663078 -24.260315 34,000 234 449 0
2021-10-23 15:49:40 GMT 38.669270 -24.249695 34,000 234 448 0
2021-10-23 15:49:35 GMT 38.674854 -24.240112 34,000 234 448 0
2021-10-23 15:49:29 GMT 38.681946 -24.228018 34,000 234 450 0
2021-10-23 15:49:24 GMT 38.687897 -24.217808 34,000 234 450 0
2021-10-23 15:49:20 GMT 38.694214 -24.206942 34,000 234 450 0
2021-10-23 15:49:15 GMT 38.699574 -24.197754 34,000 234 450 0
2021-10-23 15:49:10 GMT 38.706417 -24.186035 34,000 234 450 0
2021-10-23 15:49:05 GMT 38.712524 -24.175594 34,000 234 450 0
2021-10-23 15:49:00 GMT 38.719070 -24.164249 34,000 234 450 0
2021-10-23 15:48:54 GMT 38.725410 -24.153381 34,000 234 450 0
2021-10-23 15:48:50 GMT 38.731506 -24.142944 34,000 234 450 0
2021-10-23 15:48:44 GMT 38.738724 -24.130554 34,000 234 449 0
2021-10-23 15:48:40 GMT 38.743706 -24.122009 34,000 234 449 0
2021-10-23 15:48:33 GMT 38.751755 -24.108124 34,000 234 449 0
2021-10-23 15:48:29 GMT 38.756332 -24.100243 34,000 234 449 0
2021-10-23 15:48:24 GMT 38.762791 -24.089172 34,000 234 449 0
2021-10-23 15:48:19 GMT 38.768372 -24.079582 34,000 234 449 0
2021-10-23 15:48:14 GMT 38.775330 -24.067642 34,000 234 449 0
2021-10-23 15:48:09 GMT 38.781181 -24.057617 34,000 234 449 0
2021-10-23 15:48:04 GMT 38.787598 -24.046505 34,000 234 450 0
2021-10-23 15:47:59 GMT 38.793934 -24.035645 34,000 234 450 0
2021-10-23 15:47:53 GMT 38.801476 -24.022583 34,000 234 450 0
2021-10-23 15:47:49 GMT 38.806458 -24.014038 34,000 234 449 0
2021-10-23 15:47:44 GMT 38.813004 -24.002739 34,000 234 449 0
2021-10-23 15:47:39 GMT 38.818188 -23.993774 34,000 234 449 0
2021-10-23 15:47:35 GMT 38.824402 -23.983095 34,000 234 449 0
2021-10-23 15:47:29 GMT 38.831085 -23.971512 34,000 234 449 0
2021-10-23 15:47:25 GMT 38.836899 -23.961479 34,000 234 449 0
2021-10-23 15:47:19 GMT 38.843185 -23.950623 34,000 234 449 0
2021-10-23 15:47:09 GMT 38.855804 -23.928879 34,000 234 449 0
2021-10-23 15:46:59 GMT 38.868511 -23.906860 34,000 234 449 0
2021-10-23 15:46:49 GMT 38.880478 -23.886189 34,000 234 448 0
2021-10-23 15:46:39 GMT 38.892883 -23.864574 34,000 234 448 0
2021-10-23 15:46:32 GMT 38.900528 -23.851377 34,000 234 447 0
2021-10-23 15:46:29 GMT 38.905193 -23.843262 34,000 234 448 0
2021-10-23 15:46:19 GMT 38.917858 -23.821289 34,000 234 447 0
2021-10-23 15:46:09 GMT 38.930241 -23.799744 34,000 234 447 0
2021-10-23 15:46:04 GMT 38.936012 -23.789734 34,000 234 447 0
2021-10-23 15:45:59 GMT 38.942047 -23.779249 34,000 234 447 0
2021-10-23 15:45:54 GMT 38.948162 -23.768616 34,000 234 447 0
2021-10-23 15:45:49 GMT 38.954681 -23.757278 34,000 234 447 0
2021-10-23 15:45:46 GMT 38.968273 -23.733582 34,000 234 447 0
2021-10-23 15:45:38 GMT 38.968273 -23.733582 34,000 234 447 0
2021-10-23 15:45:36 GMT 38.970566 -23.729513 34,000 234 447 0
2021-10-23 15:45:25 GMT 38.983448 -23.707153 34,000 234 447 0
2021-10-23 15:45:19 GMT 38.991783 -23.692627 34,000 234 447 0
2021-10-23 15:45:16 GMT 38.994965 -23.687061 34,000 234 447 0
2021-10-23 15:45:06 GMT 39.007645 -23.665089 34,000 234 447 0
2021-10-23 15:44:56 GMT 39.019547 -23.644428 34,000 234 446 0
2021-10-23 15:44:45 GMT 39.033005 -23.621023 34,000 234 446 0
2021-10-23 15:44:32 GMT 39.047737 -23.595459 34,000 234 446 0
2021-10-23 15:44:24 GMT 39.057423 -23.578613 34,000 234 446 0
2021-10-23 15:44:13 GMT 39.070969 -23.554932 34,000 234 446 0
2021-10-23 15:42:03 GMT 39.230549 -23.275574 34,000 234 445 0
2021-10-23 15:42:01 GMT 39.233093 -23.271072 34,000 234 445 0
2021-10-23 15:41:49 GMT 39.246735 -23.247070 34,000 234 445 0
2021-10-23 15:41:39 GMT 39.258900 -23.225586 34,000 234 445 0
2021-10-23 15:41:30 GMT 39.269978 -23.206116 34,000 234 445 0
2021-10-23 15:41:21 GMT 39.281754 -23.185272 34,000 234 445 0
2021-10-23 15:41:08 GMT 39.296841 -23.158752 34,000 234 445 0
2021-10-23 15:41:00 GMT 39.306568 -23.141602 34,000 234 445 0
2021-10-23 15:40:00 GMT 39.379257 -23.012955 34,000 234 444 0
2021-10-23 15:39:54 GMT 39.386639 -22.999878 34,000 234 444 0
2021-10-23 15:39:40 GMT 39.404663 -22.967995 34,000 235 444 0
2021-10-23 15:38:52 GMT 39.461960 -22.866089 34,000 235 444 0
2021-10-23 15:38:38 GMT 39.478729 -22.836218 34,000 235 444 0
2021-10-23 15:38:33 GMT 39.485607 -22.823975 34,000 235 445 0
2021-10-23 15:38:22 GMT 39.498688 -22.800751 34,000 235 445 0
2021-10-23 15:37:31 GMT 39.559433 -22.691902 34,000 235 446 0
2021-10-23 15:37:25 GMT 39.567993 -22.676558 34,000 235 446 0
2021-10-23 15:37:16 GMT 39.578617 -22.657532 34,000 235 446 0
2021-10-23 15:37:04 GMT 39.591282 -22.634827 34,000 235 446 0
2021-10-23 15:36:54 GMT 39.603477 -22.612976 34,000 235 446 0
2021-10-23 15:36:44 GMT 39.615395 -22.591553 34,000 235 446 0
2021-10-23 15:36:35 GMT 39.626987 -22.570740 34,000 235 446 0
2021-10-23 15:36:24 GMT 39.639999 -22.547350 34,000 235 446 0
2021-10-23 15:36:15 GMT 39.651215 -22.527227 34,000 235 446 0
2021-10-23 15:36:04 GMT 39.663765 -22.504639 34,000 235 447 0
2021-10-23 15:35:54 GMT 39.676437 -22.481850 34,000 235 447 0
2021-10-23 15:35:44 GMT 39.688339 -22.460354 34,000 235 447 0
2021-10-23 15:35:15 GMT 39.723957 -22.395996 34,000 235 448 0
2021-10-23 15:35:10 GMT 39.730099 -22.384888 34,000 235 448 0
2021-10-23 15:35:00 GMT 39.741226 -22.364746 34,000 235 448 0
2021-10-23 15:34:51 GMT 39.753189 -22.343140 34,000 235 447 0
2021-10-23 15:34:40 GMT 39.765713 -22.320435 34,000 235 447 0
2021-10-23 15:34:15 GMT 39.795692 -22.266113 34,000 235 447 0
2021-10-23 15:33:51 GMT 39.824890 -22.213041 34,000 235 447 0
2021-10-23 15:33:47 GMT 39.830559 -22.202759 34,000 235 447 0
2021-10-23 15:32:08 GMT 39.947662 -21.989014 34,000 235 448 0
2021-10-23 15:32:01 GMT 39.956299 -21.973219 34,000 235 448 0
2021-10-23 15:31:50 GMT 39.970543 -21.947001 34,000 235 448 0
2021-10-23 15:30:55 GMT 40.036228 -21.826401 34,000 235 448 0
2021-10-23 15:30:52 GMT 40.040268 -21.818909 34,000 235 447 0
2021-10-23 15:29:31 GMT 40.137478 -21.639446 34,000 235 448 0
2021-10-23 15:29:19 GMT 40.150002 -21.616224 34,000 235 448 0
2021-10-23 15:29:10 GMT 40.161575 -21.594788 34,000 235 448 0
We lost coverage of the aircraft here for a total of 7 minutes
2021-10-23 15:22:38 GMT 40.623917 -20.725525 34,000 236 445 0
2021-10-23 15:22:28 GMT 40.635914 -20.702612 34,000 236 444 0
2021-10-23 15:22:19 GMT 40.647224 -20.681013 34,000 236 444 0
2021-10-23 15:22:09 GMT 40.658539 -20.659477 34,000 236 444 0
2021-10-23 15:21:45 GMT 40.686264 -20.606506 34,000 236 444 0
2021-10-23 15:21:38 GMT 40.694366 -20.590942 34,000 236 444 0
2021-10-23 15:21:28 GMT 40.705856 -20.568848 34,000 236 443 0
2021-10-23 15:21:09 GMT 40.727993 -20.526331 34,000 236 443 0
2021-10-23 15:21:08 GMT 40.729298 -20.523897 34,000 236 443 0
We lost coverage of the aircraft here for a total of 103 minutes
2021-10-23 13:38:01 GMT 47.803207 -5.750244 26,150 231 461 1856
2021-10-23 13:37:58 GMT 47.805908 -5.745369 25,725 231 459 1856
2021-10-23 13:36:28 GMT 47.926041 -5.528236 23,100 231 441 1408
2021-10-23 13:36:23 GMT 47.932606 -5.516334 22,975 231 438 1408
2021-10-23 13:36:14 GMT 47.944988 -5.493727 22,750 231 434 1344
2021-10-23 13:35:53 GMT 47.970406 -5.447529 22,175 231 425 2048
2021-10-23 13:35:44 GMT 47.982239 -5.426010 21,900 231 423 1600
2021-10-23 13:35:29 GMT 48.000664 -5.392386 21,550 231 417 1280
2021-10-23 13:35:24 GMT 48.006809 -5.381118 21,425 231 412 1664
2021-10-23 13:35:19 GMT 48.012024 -5.371610 21,300 231 408 1344
2021-10-23 13:35:13 GMT 48.020168 -5.356750 21,125 231 407 1216
2021-10-23 13:35:07 GMT 48.027058 -5.344144 21,025 231 404 1088
2021-10-23 13:34:59 GMT 48.036697 -5.326538 20,875 231 397 1024
2021-10-23 13:34:52 GMT 48.043808 -5.313675 20,775 231 392 960
2021-10-23 13:34:43 GMT 48.055984 -5.291359 20,600 231 387 896
2021-10-23 13:34:27 GMT 48.073196 -5.259842 20,350 231 370 2368
2021-10-23 13:34:23 GMT 48.086926 -5.234633 19,300 232 362 2432
2021-10-23 13:34:14 GMT 48.086926 -5.234633 19,900 231 368 2304
2021-10-23 13:34:03 GMT 48.098843 -5.212731 19,300 231 366 2240
2021-10-23 13:33:53 GMT 48.108898 -5.194350 18,975 232 362 2432
2021-10-23 13:33:41 GMT 48.121170 -5.171745 18,650 232 362 2496
2021-10-23 13:33:24 GMT 48.139668 -5.137658 17,150 231 359 2496
2021-10-23 13:33:20 GMT 48.144150 -5.129379 17,800 231 358 2368
2021-10-23 13:33:16 GMT 48.148327 -5.121742 17,625 231 356 2240
2021-10-23 13:33:08 GMT 48.156647 -5.106445 17,325 232 353 2176
2021-10-23 13:32:58 GMT 48.166763 -5.087682 16,975 232 344 2432
2021-10-23 13:32:46 GMT 48.178757 -5.065472 16,525 232 344 2496
2021-10-23 13:32:37 GMT 48.187988 -5.048507 16,125 231 342 2688
2021-10-23 13:32:29 GMT 48.195347 -5.034919 15,775 231 341 2688
2021-10-23 13:32:22 GMT 48.202095 -5.022487 15,500 232 337 2304
2021-10-23 13:32:18 GMT 48.207321 -5.012864 15,300 232 335 2240
2021-10-23 13:32:13 GMT 48.211807 -5.004554 15,125 232 332 1984
2021-10-23 13:32:00 GMT 48.224209 -4.981577 14,725 232 322 2240
2021-10-23 13:31:52 GMT 48.231033 -4.968778 14,450 232 320 2944
2021-10-23 13:31:42 GMT 48.240593 -4.951003 13,925 232 320 2944
2021-10-23 13:31:37 GMT 48.245621 -4.941679 13,675 231 319 2880
2021-10-23 13:31:30 GMT 48.251907 -4.930044 13,350 232 317 2816
2021-10-23 13:31:22 GMT 48.259552 -4.915889 12,950 232 314 2944
2021-10-23 13:31:02 GMT 48.276951 -4.883423 12,475 232 312 2944
2021-10-23 13:30:57 GMT 48.282120 -4.873915 11,750 231 309 2944
2021-10-23 13:30:51 GMT 48.286774 -4.865281 11,500 232 307 2752
2021-10-23 13:30:41 GMT 48.295670 -4.848703 11,050 231 295 1152
2021-10-23 13:30:30 GMT 48.306152 -4.829336 10,700 231 295 1152
2021-10-23 13:30:21 GMT 48.313843 -4.815181 10,550 231 285 896
We lost coverage of the aircraft here for a total of 137 minutes
2021-10-23 11:13:24 GMT 48.502487 -4.175791 2,700 248 185 0
2021-10-23 11:13:19 GMT 48.504135 -4.169945 2,675 235 180 0
2021-10-23 11:13:06 GMT 48.510506 -4.156157 2,675 225 179 0
2021-10-23 11:12:56 GMT 48.516815 -4.146635 2,675 225 180 0
2021-10-23 11:12:48 GMT 48.521210 -4.139966 2,675 225 178 0
2021-10-23 11:12:36 GMT 48.528030 -4.129803 2,675 225 179 64
2021-10-23 11:12:29 GMT 48.532524 -4.123126 2,675 225 179 64
2021-10-23 11:12:17 GMT 48.539040 -4.113368 2,675 225 178 64
2021-10-23 11:12:08 GMT 48.544647 -4.105013 2,675 225 178 64
2021-10-23 11:11:55 GMT 48.553101 -4.092624 2,675 225 181 64
2021-10-23 11:11:42 GMT 48.559845 -4.082759 2,675 225 181 0
2021-10-23 11:11:37 GMT 48.562828 -4.078313 2,700 225 181 -256
2021-10-23 11:11:27 GMT 48.569138 -4.069026 2,775 224 180 -1024
2021-10-23 11:11:17 GMT 48.575226 -4.060223 2,975 224 181 -1088
2021-10-23 11:11:08 GMT 48.581451 -4.051425 3,150 222 180 -1152
2021-10-23 11:10:56 GMT 48.588341 -4.042896 3,350 214 180 -1088
2021-10-23 11:10:45 GMT 48.596054 -4.036419 3,550 205 179 -1152
2021-10-23 11:10:42 GMT 48.598301 -4.034874 3,600 205 179 -1088
2021-10-23 11:10:35 GMT 48.604122 -4.030898 3,750 204 179 -1152
2021-10-23 11:10:07 GMT 48.625168 -4.016630 4,300 205 181 -1088
2021-10-23 11:10:04 GMT 48.627502 -4.015010 4,350 205 181 -1024
2021-10-23 11:09:52 GMT 48.636753 -4.008781 4,550 204 184 -832
2021-10-23 11:09:44 GMT 48.642620 -4.004806 4,650 204 189 -640
2021-10-23 11:09:34 GMT 48.651093 -3.999023 4,775 205 194 -704
2021-10-23 11:09:22 GMT 48.660637 -3.992446 4,925 205 200 -704
2021-10-23 11:09:14 GMT 48.668083 -3.987387 5,025 205 206 -832
2021-10-23 11:09:03 GMT 48.677116 -3.981243 5,150 205 211 -448
2021-10-23 11:08:53 GMT 48.686054 -3.975099 5,225 205 218 -448
2021-10-23 11:08:44 GMT 48.695084 -3.968883 5,300 205 226 -448
2021-10-23 11:08:32 GMT 48.706303 -3.961222 5,375 205 231 -640
2021-10-23 11:08:23 GMT 48.714981 -3.955219 5,550 205 232 -1344
2021-10-23 11:08:10 GMT 48.727623 -3.946694 5,850 205 231 -1344
2021-10-23 11:08:02 GMT 48.735489 -3.941275 5,975 205 231 -512
2021-10-23 11:07:56 GMT 48.741077 -3.937514 6,000 205 231 -64
2021-10-23 11:07:48 GMT 48.750549 -3.930993 6,000 205 231 -64
2021-10-23 11:07:43 GMT 48.753937 -3.928598 6,000 205 231 -64
2021-10-23 11:07:31 GMT 48.765427 -3.920851 6,000 204 232 0
2021-10-23 11:07:20 GMT 48.777061 -3.913157 6,000 204 240 0
2021-10-23 11:07:13 GMT 48.784561 -3.908175 6,000 205 249 0
2021-10-23 11:07:06 GMT 48.791401 -3.903544 6,000 215 253 0
2021-10-23 11:07:03 GMT 48.795181 -3.900710 6,000 210 252 64
2021-10-23 11:06:57 GMT 48.800713 -3.896027 6,000 217 254 -64
2021-10-23 11:06:51 GMT 48.806534 -3.889724 6,000 218 253 -64
2021-10-23 11:06:42 GMT 48.814499 -3.879441 6,000 227 254 0
2021-10-23 11:06:32 GMT 48.822403 -3.866537 6,000 243 258 0
2021-10-23 11:06:24 GMT 48.827820 -3.854722 6,000 247 259 0
2021-10-23 11:06:22 GMT 48.829342 -3.850636 6,000 247 259 0
2021-10-23 11:06:14 GMT 48.833221 -3.835285 6,000 253 260 64
2021-10-23 11:06:10 GMT 48.833817 -3.831552 6,000 260 263 0
2021-10-23 11:06:06 GMT 48.834595 -3.823313 6,000 274 268 0
2021-10-23 11:06:01 GMT 48.834835 -3.814786 6,000 274 268 0
2021-10-23 11:05:55 GMT 48.834137 -3.803453 6,000 292 275 64
2021-10-23 11:05:52 GMT 48.830612 -3.785001 6,000 292 275 64
2021-10-23 11:05:45 GMT 48.830612 -3.785001 6,000 296 276 0
2021-10-23 11:05:42 GMT 48.829060 -3.779947 6,000 307 280 -64
2021-10-23 11:05:29 GMT 48.819534 -3.758381 6,000 307 280 -64
2021-10-23 11:05:23 GMT 48.813976 -3.747278 6,000 308 281 0
2021-10-23 11:05:15 GMT 48.806396 -3.732253 6,000 308 282 0
2021-10-23 11:05:12 GMT 48.806396 -3.732253 6,000 308 282 0
2021-10-23 11:05:08 GMT 48.803085 -3.725666 6,000 308 282 0
2021-10-23 11:05:06 GMT 48.801083 -3.721691 6,000 308 282 0
2021-10-23 11:05:04 GMT 48.799896 -3.719365 6,000 308 282 0
2021-10-23 11:05:03 GMT 48.799026 -3.717604 6,000 308 282 0
2021-10-23 11:04:56 GMT 48.793404 -3.706440 6,000 308 283 0
2021-10-23 11:04:45 GMT 48.783829 -3.687603 6,000 308 282 64
2021-10-23 11:04:08 GMT 48.755264 -3.631615 6,000 308 279 0
2021-10-23 11:04:00 GMT 48.742630 -3.606826 6,000 308 280 0
2021-10-23 11:03:53 GMT 48.742630 -3.606826 6,000 308 279 0
2021-10-23 11:03:42 GMT 48.734802 -3.591543 6,000 308 280 0
2021-10-23 11:03:34 GMT 48.728088 -3.578507 6,000 310 280 0
2021-10-23 11:03:24 GMT 48.720596 -3.564052 6,000 310 280 0
2021-10-23 11:03:16 GMT 48.713699 -3.551119 6,000 310 280 0
2021-10-23 11:03:14 GMT 48.712280 -3.548584 6,000 311 280 0
2021-10-23 11:03:12 GMT 48.710587 -3.545556 6,000 312 281 0
2021-10-23 11:03:07 GMT 48.705605 -3.537309 6,000 318 284 0
2021-10-23 11:02:59 GMT 48.698807 -3.527406 6,000 318 284 0
2021-10-23 11:02:53 GMT 48.692802 -3.519094 6,000 318 284 0
2021-10-23 11:02:46 GMT 48.685867 -3.509357 6,000 318 284 0
2021-10-23 11:02:41 GMT 48.681210 -3.502904 6,000 318 284 0
2021-10-23 11:02:36 GMT 48.676300 -3.496047 6,000 318 284 0
2021-10-23 11:02:25 GMT 48.665802 -3.481437 6,000 318 285 0
2021-10-23 11:01:26 GMT 48.608139 -3.400973 6,000 318 283 0
2021-10-23 11:00:17 GMT 48.532104 -3.328435 6,000 332 287 0
2021-10-23 11:00:09 GMT 48.522995 -3.320899 6,000 332 287 0
2021-10-23 11:00:02 GMT 48.514389 -3.313786 6,000 332 287 0
2021-10-23 10:59:54 GMT 48.505417 -3.306392 6,000 332 287 0
2021-10-23 10:59:44 GMT 48.493839 -3.296838 6,000 332 287 0
2021-10-23 10:59:29 GMT 48.475525 -3.281813 6,000 332 287 0
2021-10-23 10:59:24 GMT 48.470188 -3.277395 6,000 332 287 0
2021-10-23 10:59:21 GMT 48.466793 -3.274649 6,000 332 287 0
2021-10-23 10:59:13 GMT 48.457481 -3.266915 6,000 332 287 0
2021-10-23 10:59:09 GMT 48.452545 -3.262867 6,000 332 287 0
2021-10-23 10:59:01 GMT 48.443005 -3.255061 6,000 332 287 64
2021-10-23 10:58:54 GMT 48.434967 -3.248432 6,000 332 288 0
2021-10-23 10:58:41 GMT 48.419727 -3.235980 6,025 332 289 -320
2021-10-23 10:58:34 GMT 48.411396 -3.229113 6,100 332 288 -960
2021-10-23 10:58:23 GMT 48.399628 -3.219205 6,300 329 288 -1152
2021-10-23 10:58:14 GMT 48.388443 -3.207213 6,500 315 282 -1280
2021-10-23 10:58:08 GMT 48.383698 -3.199840 6,600 308 280 -1280
2021-10-23 10:58:03 GMT 48.380390 -3.192685 6,700 300 276 -1280
2021-10-23 10:58:00 GMT 48.377922 -3.186180 6,775 296 276 -1280
2021-10-23 10:57:53 GMT 48.374477 -3.174977 6,900 295 277 -1216
2021-10-23 10:57:50 GMT 48.372665 -3.168992 6,975 295 278 -1216
2021-10-23 10:57:43 GMT 48.369232 -3.157372 7,100 295 278 -1216
2021-10-23 10:57:33 GMT 48.363785 -3.139202 7,300 295 279 -1216
2021-10-23 10:57:22 GMT 48.358185 -3.120406 7,525 295 280 -1152
2021-10-23 10:57:07 GMT 48.350365 -3.094386 7,675 295 281 -1152
2021-10-23 10:57:04 GMT 48.347717 -3.085609 7,900 295 283 -1216
2021-10-23 10:56:59 GMT 48.345898 -3.079569 7,975 295 282 -1216
2021-10-23 10:56:52 GMT 48.341721 -3.065749 8,125 295 283 -1216
2021-10-23 10:56:42 GMT 48.336777 -3.049129 8,300 295 284 -1152
2021-10-23 10:56:33 GMT 48.331100 -3.030043 8,525 294 284 -1216
2021-10-23 10:56:08 GMT 48.318104 -2.985896 9,000 294 287 -1216
2021-10-23 10:56:01 GMT 48.314983 -2.975271 9,125 294 288 -1216
2021-10-23 10:55:50 GMT 48.306793 -2.947294 9,450 294 289 -1216
2021-10-23 10:55:33 GMT 48.299484 -2.922002 9,725 294 291 -1216
2021-10-23 10:55:28 GMT 48.296906 -2.913067 10,600 294 294 -1216
2021-10-23 10:54:50 GMT 48.276215 -2.840670 10,550 294 297 -1216
2021-10-23 10:54:46 GMT 48.274578 -2.834979 10,775 294 299 -1216
2021-10-23 10:54:41 GMT 48.271637 -2.824754 10,775 294 299 -1216
2021-10-23 10:54:36 GMT 48.269222 -2.816186 11,025 294 300 -1216
2021-10-23 10:54:27 GMT 48.264194 -2.798623 11,025 294 301 -1152
2021-10-23 10:54:21 GMT 48.258499 -2.778625 11,175 293 302 -1152
2021-10-23 10:54:17 GMT 48.258499 -2.778625 11,375 293 303 -1152
2021-10-23 10:54:10 GMT 48.254887 -2.765591 11,375 293 304 -1152
2021-10-23 10:54:06 GMT 48.252686 -2.757850 11,450 293 305 -1152
2021-10-23 10:54:03 GMT 48.251579 -2.753954 11,475 293 306 -1152
2021-10-23 10:54:02 GMT 48.250763 -2.751019 11,500 293 307 -1152
2021-10-23 10:54:00 GMT 48.248840 -2.744188 11,575 293 307 -1152
2021-10-23 10:53:58 GMT 48.248367 -2.742390 11,600 293 307 -1152
2021-10-23 10:53:55 GMT 48.243759 -2.726055 11,700 293 308 -1088
2021-10-23 10:53:50 GMT 48.241756 -2.718755 11,750 293 309 -1024
2021-10-23 10:53:46 GMT 48.241756 -2.718755 11,775 293 309 -1024
2021-10-23 10:53:39 GMT 48.237755 -2.704299 11,950 293 309 -576
2021-10-23 10:53:36 GMT 48.235939 -2.697794 11,950 293 309 -576
2021-10-23 10:53:34 GMT 48.234879 -2.694045 11,975 293 308 -448
2021-10-23 10:53:32 GMT 48.234077 -2.691072 12,000 293 308 -320
2021-10-23 10:53:30 GMT 48.231331 -2.681242 12,000 293 308 0
2021-10-23 10:53:27 GMT 48.231331 -2.681242 12,000 293 308 0
2021-10-23 10:53:26 GMT 48.229282 -2.673942 12,000 293 308 0
2021-10-23 10:53:24 GMT 48.229282 -2.673942 12,000 293 308 0
2021-10-23 10:53:22 GMT 48.228119 -2.669750 12,000 293 308 0
2021-10-23 10:53:19 GMT 48.226501 -2.663832 12,000 293 308 0
2021-10-23 10:53:15 GMT 48.224899 -2.658128 12,000 293 308 0
2021-10-23 10:53:09 GMT 48.221695 -2.646693 12,000 293 309 -64
2021-10-23 10:53:06 GMT 48.219727 -2.639606 12,025 293 310 -64
2021-10-23 10:52:58 GMT 48.215698 -2.624887 12,025 293 311 0
2021-10-23 10:52:55 GMT 48.213688 -2.617710 12,025 293 313 0
2021-10-23 10:52:52 GMT 48.212265 -2.612563 12,000 293 314 0
2021-10-23 10:52:51 GMT 48.212009 -2.611566 12,000 293 314 0
2021-10-23 10:52:50 GMT 48.211121 -2.608337 12,000 293 317 0
2021-10-23 10:52:47 GMT 48.208336 -2.598194 12,000 293 322 0
2021-10-23 10:52:35 GMT 48.202282 -2.576294 12,000 293 330 0
2021-10-23 10:52:26 GMT 48.196747 -2.556082 12,000 293 339 128
2021-10-23 10:52:15 GMT 48.190933 -2.534814 11,975 293 349 -64
2021-10-23 10:52:08 GMT 48.186401 -2.518123 12,000 293 358 -960
2021-10-23 10:52:05 GMT 48.184776 -2.512255 12,025 293 358 -960
2021-10-23 10:52:04 GMT 48.183846 -2.508786 12,050 293 358 -960
2021-10-23 10:52:02 GMT 48.182236 -2.502840 12,100 293 358 -960
2021-10-23 10:52:00 GMT 48.181000 -2.498263 12,125 293 358 -1088
2021-10-23 10:51:58 GMT 48.179810 -2.493896 12,175 293 359 -1152
2021-10-23 10:51:57 GMT 48.178635 -2.489560 12,200 293 359 -1280
2021-10-23 10:51:54 GMT 48.177704 -2.486090 12,225 293 359 -1408
2021-10-23 10:51:53 GMT 48.175282 -2.477128 12,350 293 360 -1664
2021-10-23 10:51:50 GMT 48.175282 -2.477128 12,350 293 360 -1728
2021-10-23 10:51:49 GMT 48.174629 -2.474815 12,375 293 360 -1728
2021-10-23 10:51:48 GMT 48.173401 -2.470234 12,425 293 360 -1664
2021-10-23 10:51:45 GMT 48.172119 -2.465586 12,475 293 361 -1600
2021-10-23 10:51:44 GMT 48.171524 -2.463262 12,500 293 361 -1600
2021-10-23 10:51:42 GMT 48.169556 -2.456149 12,575 293 361 -1664
2021-10-23 10:51:41 GMT 48.169556 -2.456149 12,600 293 361 -1664
2021-10-23 10:51:39 GMT 48.168301 -2.451469 12,650 293 361 -1664
2021-10-23 10:51:36 GMT 48.166306 -2.444106 12,725 293 361 -1664
2021-10-23 10:51:35 GMT 48.165737 -2.442001 12,750 293 361 -1600
2021-10-23 10:51:33 GMT 48.164337 -2.436923 12,825 293 362 -1600
2021-10-23 10:51:31 GMT 48.163467 -2.433683 12,850 293 362 -1600
2021-10-23 10:51:30 GMT 48.161129 -2.425087 12,950 293 362 -1600
2021-10-23 10:51:28 GMT 48.161129 -2.425087 12,950 293 363 -1600
2021-10-23 10:51:27 GMT 48.160446 -2.422485 13,000 293 363 -1600
2021-10-23 10:51:25 GMT 48.159210 -2.418091 13,050 293 364 -1600
2021-10-23 10:51:24 GMT 48.157497 -2.411781 13,125 293 364 -1600
2021-10-23 10:51:20 GMT 48.156509 -2.408066 13,150 293 364 -1600
2021-10-23 10:51:18 GMT 48.155029 -2.402696 13,225 293 365 -1536
2021-10-23 10:51:17 GMT 48.154266 -2.399895 13,225 293 365 -1536
2021-10-23 10:51:16 GMT 48.153961 -2.398752 13,300 293 365 -1536
2021-10-23 10:51:14 GMT 48.152985 -2.395226 13,300 293 365 -1536
2021-10-23 10:51:13 GMT 48.152023 -2.391724 13,325 293 366 -1536
2021-10-23 10:51:11 GMT 48.151073 -2.388259 13,375 293 366 -1600
2021-10-23 10:51:09 GMT 48.149303 -2.381920 13,450 293 367 -1600
2021-10-23 10:51:06 GMT 48.147209 -2.374174 13,525 293 367 -1600
2021-10-23 10:51:04 GMT 48.145981 -2.369751 13,600 293 367 -1600
2021-10-23 10:51:03 GMT 48.145393 -2.367624 13,600 293 368 -1600
2021-10-23 10:51:02 GMT 48.144608 -2.364807 13,650 293 368 -1600
2021-10-23 10:51:00 GMT 48.143394 -2.360300 13,700 293 368 -1600
2021-10-23 10:50:57 GMT 48.141346 -2.352764 13,775 293 369 -1600
2021-10-23 10:50:56 GMT 48.140694 -2.350440 13,800 293 369 -1600
2021-10-23 10:50:55 GMT 48.140121 -2.348328 13,825 293 369 -1664
2021-10-23 10:50:54 GMT 48.138748 -2.343315 13,875 293 370 -1664
2021-10-23 10:50:52 GMT 48.138107 -2.340981 13,925 293 370 -1664
2021-10-23 10:50:50 GMT 48.136963 -2.336723 13,975 293 370 -1664
2021-10-23 10:50:49 GMT 48.134766 -2.328690 14,050 293 371 -1600
2021-10-23 10:50:47 GMT 48.134037 -2.326073 14,075 293 371 -1600
2021-10-23 10:50:45 GMT 48.133526 -2.324172 14,100 293 371 -1600
2021-10-23 10:50:44 GMT 48.132828 -2.321566 14,125 293 371 -1600
2021-10-23 10:50:43 GMT 48.131660 -2.317270 14,175 293 372 -1600
2021-10-23 10:50:40 GMT 48.130692 -2.313721 14,225 293 372 -1664
2021-10-23 10:50:38 GMT 48.127487 -2.301773 14,325 293 372 -1664
2021-10-23 10:50:36 GMT 48.127487 -2.301773 14,375 293 373 -1600
2021-10-23 10:50:35 GMT 48.126801 -2.299438 14,400 293 373 -1600
2021-10-23 10:50:34 GMT 48.126160 -2.297035 14,425 293 373 -1600
2021-10-23 10:50:30 GMT 48.124283 -2.290100 14,550 293 375 -1472
2021-10-23 10:50:28 GMT 48.122585 -2.283889 14,550 293 375 -1472
2021-10-23 10:50:24 GMT 48.119980 -2.274307 14,725 293 376 -1536
2021-10-23 10:50:21 GMT 48.116730 -2.262291 14,775 293 376 -1600
2021-10-23 10:50:19 GMT 48.116730 -2.262291 14,775 293 376 -1600
2021-10-23 10:50:18 GMT 48.116161 -2.260085 14,800 293 376 -1600
2021-10-23 10:50:17 GMT 48.114113 -2.252620 14,875 293 376 -1664
2021-10-23 10:50:15 GMT 48.114113 -2.252620 14,900 293 377 -1664
2021-10-23 10:50:14 GMT 48.113525 -2.250481 14,925 293 377 -1664
2021-10-23 10:50:11 GMT 48.111553 -2.243253 15,000 293 377 -1728
2021-10-23 10:50:10 GMT 48.110901 -2.240788 15,025 293 377 -1728
2021-10-23 10:50:07 GMT 48.108765 -2.233109 15,125 293 379 -1728
2021-10-23 10:50:06 GMT 48.108059 -2.230436 15,150 293 379 -1792
2021-10-23 10:50:04 GMT 48.107082 -2.226774 15,200 293 379 -1792
2021-10-23 10:50:03 GMT 48.106152 -2.223393 15,250 293 379 -1728
2021-10-23 10:50:02 GMT 48.105560 -2.221230 15,275 293 379 -1728
2021-10-23 10:50:01 GMT 48.104897 -2.218816 15,300 293 379 -1728
2021-10-23 10:49:58 GMT 48.102951 -2.211754 15,375 293 379 -1664
2021-10-23 10:49:55 GMT 48.100983 -2.204519 15,475 293 379 -1600
2021-10-23 10:49:54 GMT 48.099380 -2.198639 15,525 293 380 -1600
2021-10-23 10:49:52 GMT 48.098740 -2.196236 15,550 293 381 -1600
2021-10-23 10:49:51 GMT 48.098190 -2.194313 15,575 293 381 -1600
2021-10-23 10:49:50 GMT 48.096817 -2.189163 15,625 293 382 -1600
2021-10-23 10:49:46 GMT 48.095261 -2.183533 15,700 293 382 -1600
2021-10-23 10:49:45 GMT 48.093933 -2.178658 15,750 293 382 -1600
2021-10-23 10:49:43 GMT 48.093338 -2.176460 15,775 293 383 -1600
2021-10-23 10:49:42 GMT 48.092743 -2.174307 15,800 293 383 -1600
2021-10-23 10:49:41 GMT 48.091209 -2.168673 15,850 293 383 -1600
2021-10-23 10:49:39 GMT 48.090637 -2.166435 15,875 293 384 -1600
2021-10-23 10:49:38 GMT 48.089905 -2.163743 15,925 293 384 -1600
2021-10-23 10:49:36 GMT 48.088509 -2.158602 15,950 293 384 -1600
2021-10-23 10:49:35 GMT 48.087891 -2.156410 16,000 293 384 -1600
2021-10-23 10:49:33 GMT 48.085762 -2.148531 16,075 293 385 -1664
2021-10-23 10:49:31 GMT 48.085110 -2.146067 16,100 293 385 -1664
2021-10-23 10:49:30 GMT 48.084366 -2.143390 16,150 293 385 -1664
2021-10-23 10:49:28 GMT 48.082272 -2.135714 16,225 293 385 -1664
2021-10-23 10:49:25 GMT 48.081059 -2.131277 16,300 293 386 -1728
2021-10-23 10:49:23 GMT 48.079525 -2.125643 16,350 293 386 -1728
2021-10-23 10:49:22 GMT 48.078873 -2.123178 16,375 293 386 -1728
2021-10-23 10:49:20 GMT 48.076721 -2.115280 16,450 293 387 -1664
2021-10-23 10:49:18 GMT 48.076035 -2.112808 16,500 293 387 -1664
2021-10-23 10:49:16 GMT 48.075348 -2.110268 16,525 293 387 -1600
2021-10-23 10:49:15 GMT 48.074680 -2.107826 16,550 293 387 -1600
2021-10-23 10:49:13 GMT 48.073334 -2.102896 16,600 293 387 -1536
2021-10-23 10:49:12 GMT 48.072586 -2.100149 16,625 293 389 -1536
2021-10-23 10:49:10 GMT 48.070129 -2.091248 16,725 293 389 -1536
2021-10-23 10:49:08 GMT 48.069794 -2.090008 16,725 293 389 -1600
2021-10-23 10:49:06 GMT 48.067612 -2.082047 16,825 293 390 -1664
2021-10-23 10:49:04 GMT 48.066605 -2.078545 16,850 293 390 -1664
2021-10-23 10:49:02 GMT 48.063766 -2.068382 16,975 293 391 -1728
2021-10-23 10:49:00 GMT 48.063766 -2.068382 17,000 293 391 -1728
2021-10-23 10:48:59 GMT 48.063171 -2.066116 17,000 293 391 -1728
2021-10-23 10:48:58 GMT 48.061752 -2.061172 17,050 293 391 -1728
2021-10-23 10:48:55 GMT 48.060287 -2.055885 17,125 294 392 -1728
2021-10-23 10:48:53 GMT 48.058868 -2.050941 17,175 294 392 -1728
2021-10-23 10:48:52 GMT 48.057320 -2.045429 17,250 294 393 -1728
2021-10-23 10:48:50 GMT 48.056671 -2.043251 17,275 294 393 -1792
2021-10-23 10:48:49 GMT 48.055893 -2.040504 17,300 294 393 -1792
2021-10-23 10:48:48 GMT 48.055298 -2.038513 17,325 296 394 -1920
2021-10-23 10:48:47 GMT 48.052940 -2.030569 17,425 296 394 -1920
2021-10-23 10:48:45 GMT 48.052940 -2.030569 17,425 296 394 -1920
2021-10-23 10:48:43 GMT 48.051544 -2.026132 17,550 297 394 -1920
2021-10-23 10:48:40 GMT 48.049759 -2.020798 17,550 300 396 -1920
2021-10-23 10:48:39 GMT 48.049118 -2.018875 17,575 301 396 -1984
2021-10-23 10:48:38 GMT 48.046192 -2.011343 17,675 303 396 -1984
2021-10-23 10:48:36 GMT 48.046192 -2.011343 17,675 305 396 -1984
2021-10-23 10:48:35 GMT 48.044998 -2.008575 17,725 305 396 -1984
2021-10-23 10:48:34 GMT 48.042938 -2.004044 17,800 307 397 -1984
2021-10-23 10:48:32 GMT 48.041977 -2.002052 17,825 311 397 -1984
2021-10-23 10:48:31 GMT 48.039909 -1.997962 17,875 312 397 -1920
2021-10-23 10:48:28 GMT 48.037582 -1.993744 17,950 315 398 -1920
2021-10-23 10:48:26 GMT 48.033623 -1.987258 18,050 320 399 -1856
2021-10-23 10:48:24 GMT 48.031723 -1.984337 18,100 320 399 -1856
2021-10-23 10:48:22 GMT 48.029388 -1.981178 18,150 320 399 -1856
2021-10-23 10:48:21 GMT 48.027512 -1.978569 18,200 323 399 -1920
2021-10-23 10:48:19 GMT 48.024811 -1.975204 18,250 324 399 -1920
2021-10-23 10:48:18 GMT 48.023521 -1.973666 18,275 325 399 -1920
2021-10-23 10:48:16 GMT 48.021149 -1.971085 18,325 326 399 -1920
2021-10-23 10:48:15 GMT 48.019238 -1.968947 18,350 327 399 -1920
2021-10-23 10:48:14 GMT 48.016891 -1.966690 18,425 332 400 -1984
2021-10-23 10:48:12 GMT 48.014397 -1.964370 18,475 332 400 -1984
2021-10-23 10:48:11 GMT 48.012314 -1.962570 18,525 332 400 -1984
2021-10-23 10:48:10 GMT 48.010719 -1.961200 18,550 334 400 -1984
2021-10-23 10:48:08 GMT 48.005951 -1.957626 18,650 337 401 -1984
2021-10-23 10:48:05 GMT 48.004250 -1.956482 18,675 340 401 -1984
2021-10-23 10:48:01 GMT 47.996841 -1.952133 18,825 343 402 -2048
2021-10-23 10:47:58 GMT 47.992401 -1.949936 18,900 347 401 -2048
2021-10-23 10:47:57 GMT 47.990608 -1.949228 18,925 347 401 -2048
2021-10-23 10:47:55 GMT 47.986652 -1.947749 19,250 353 402 -2048
2021-10-23 10:47:51 GMT 47.979343 -1.945777 19,250 358 403 -1920
2021-10-23 10:47:47 GMT 47.970219 -1.944510 19,300 0 403 -1792
2021-10-23 10:47:44 GMT 47.964249 -1.944374 19,375 2 403 -1664
2021-10-23 10:47:42 GMT 47.960907 -1.944511 19,525 5 403 -1536
2021-10-23 10:47:38 GMT 47.954205 -1.945425 19,525 9 403 -1472
2021-10-23 10:47:37 GMT 47.952156 -1.945848 19,550 9 403 -1472
2021-10-23 10:47:35 GMT 47.948433 -1.946693 19,600 11 404 -1472
2021-10-23 10:47:34 GMT 47.946808 -1.947189 19,625 15 403 -1344
2021-10-23 10:47:31 GMT 47.942230 -1.948631 19,675 15 403 -1344
2021-10-23 10:47:30 GMT 47.940052 -1.949439 19,700 16 404 -1280
2021-10-23 10:47:29 GMT 47.937538 -1.950496 19,725 17 404 -1216
2021-10-23 10:47:27 GMT 47.933945 -1.952133 19,775 22 403 -1344
2021-10-23 10:47:25 GMT 47.930420 -1.954056 19,825 24 402 -1408
2021-10-23 10:47:24 GMT 47.928497 -1.955086 19,850 24 402 -1472
2021-10-23 10:47:23 GMT 47.926758 -1.956116 19,875 26 402 -1472
2021-10-23 10:47:21 GMT 47.922546 -1.959137 19,900 27 402 -1344
2021-10-23 10:47:19 GMT 47.919895 -1.961130 19,950 29 402 -1088
2021-10-23 10:47:18 GMT 47.917614 -1.963031 19,975 30 403 -832
2021-10-23 10:47:17 GMT 47.916138 -1.964287 19,975 32 403 -576
2021-10-23 10:47:15 GMT 47.914398 -1.965866 20,000 35 405 -128
2021-10-23 10:47:12 GMT 47.909271 -1.970947 20,000 37 405 -64
2021-10-23 10:47:10 GMT 47.906799 -1.973488 20,000 39 405 0
2021-10-23 10:47:08 GMT 47.903881 -1.976976 20,000 42 405 0
2021-10-23 10:47:05 GMT 47.899227 -1.983032 20,000 46 405 0
2021-10-23 10:47:04 GMT 47.897736 -1.985161 20,000 46 405 0
2021-10-23 10:47:00 GMT 47.892746 -1.993057 20,000 52 405 0
2021-10-23 10:46:58 GMT 47.890320 -1.997314 20,000 53 405 0
2021-10-23 10:46:57 GMT 47.889172 -1.999512 20,000 54 404 0
2021-10-23 10:46:56 GMT 47.887665 -2.002327 20,000 56 404 0
2021-10-23 10:46:54 GMT 47.884644 -2.008987 20,000 59 404 0
2021-10-23 10:46:53 GMT 47.884644 -2.008987 20,000 66 404 64
2021-10-23 10:46:51 GMT 47.882420 -2.014160 20,000 66 404 64
2021-10-23 10:46:48 GMT 47.880466 -2.019512 20,000 66 404 64
2021-10-23 10:46:45 GMT 47.877365 -2.028969 20,000 69 404 64
2021-10-23 10:46:43 GMT 47.875854 -2.034599 20,000 69 404 64
2021-10-23 10:46:42 GMT 47.875122 -2.037483 20,000 72 403 64
2021-10-23 10:46:41 GMT 47.874710 -2.038994 20,000 74 403 64
2021-10-23 10:46:39 GMT 47.872459 -2.050077 20,000 77 404 128
2021-10-23 10:46:37 GMT 47.872459 -2.050077 20,000 77 404 128
2021-10-23 10:46:35 GMT 47.871620 -2.055218 19,975 81 403 128
2021-10-23 10:46:31 GMT 47.870041 -2.068794 19,975 84 402 64
2021-10-23 10:46:30 GMT 47.870041 -2.068794 19,975 85 403 64
2021-10-23 10:46:25 GMT 47.869400 -2.080055 19,975 89 403 -128
2021-10-23 10:46:23 GMT 47.869293 -2.087191 20,000 92 402 -192
2021-10-23 10:46:22 GMT 47.869354 -2.090218 20,000 92 402 -192
2021-10-23 10:46:20 GMT 47.869400 -2.095985 20,000 95 402 -384
2021-10-23 10:46:18 GMT 47.869850 -2.103107 20,025 98 401 -512
2021-10-23 10:46:17 GMT 47.869850 -2.103107 20,025 98 401 -512
2021-10-23 10:46:16 GMT 47.870132 -2.106697 20,050 99 401 -576
2021-10-23 10:46:15 GMT 47.872101 -2.122353 20,125 102 402 -704
2021-10-23 10:46:11 GMT 47.872101 -2.122353 20,125 107 401 -960
2021-10-23 10:46:08 GMT 47.873016 -2.127333 20,150 107 401 -960
2021-10-23 10:46:07 GMT 47.873840 -2.131554 20,175 108 401 -1088
2021-10-23 10:46:05 GMT 47.874710 -2.135468 20,200 109 400 -1216
2021-10-23 10:46:04 GMT 47.875252 -2.137827 20,225 110 400 -1344
2021-10-23 10:46:01 GMT 47.877628 -2.147334 20,300 110 400 -1792
2021-10-23 10:45:58 GMT 47.879162 -2.153250 20,375 110 400 -1792
2021-10-23 10:45:56 GMT 47.880188 -2.157335 20,425 110 400 -1856
2021-10-23 10:45:55 GMT 47.881210 -2.161217 20,475 110 401 -1792
2021-10-23 10:45:54 GMT 47.882374 -2.165856 20,525 110 401 -1792
2021-10-23 10:45:52 GMT 47.882996 -2.168152 20,550 110 401 -1792
2021-10-23 10:45:51 GMT 47.883678 -2.170997 20,600 110 401 -1728
2021-10-23 10:45:49 GMT 47.885216 -2.176913 20,650 110 402 -1728
2021-10-23 10:45:47 GMT 47.887543 -2.185927 20,750 110 403 -1664
2021-10-23 10:45:44 GMT 47.888615 -2.190082 20,800 110 403 -1664
2021-10-23 10:45:42 GMT 47.889870 -2.195012 20,850 110 403 -1664
2021-10-23 10:45:41 GMT 47.890457 -2.197334 20,875 110 404 -1728
2021-10-23 10:45:40 GMT 47.891174 -2.200223 20,900 110 404 -1728
2021-10-23 10:45:39 GMT 47.891918 -2.203040 20,950 110 404 -1728
2021-10-23 10:45:36 GMT 47.893845 -2.210587 21,025 110 405 -1728
2021-10-23 10:45:35 GMT 47.895218 -2.216080 21,100 110 405 -1728
2021-10-23 10:45:33 GMT 47.895905 -2.218689 21,125 110 405 -1728
2021-10-23 10:45:31 GMT 47.897415 -2.224663 21,175 110 406 -1728
2021-10-23 10:45:29 GMT 47.898903 -2.230365 21,250 110 406 -1728
2021-10-23 10:45:27 GMT 47.901230 -2.239521 21,350 110 407 -1728
2021-10-23 10:45:24 GMT 47.902084 -2.242928 21,375 110 407 -1728
2021-10-23 10:45:22 GMT 47.903458 -2.248421 21,450 110 408 -1728
2021-10-23 10:45:20 GMT 47.904812 -2.253676 21,500 110 408 -1792
2021-10-23 10:45:19 GMT 47.905426 -2.256042 21,525 110 408 -1792
2021-10-23 10:45:17 GMT 47.906342 -2.259682 21,575 110 408 -1792
2021-10-23 10:45:15 GMT 47.907654 -2.264944 21,625 110 409 -1792
2021-10-23 10:45:14 GMT 47.908352 -2.267620 21,650 110 409 -1792
2021-10-23 10:45:11 GMT 47.910118 -2.274663 21,750 110 409 -1856
2021-10-23 10:45:10 GMT 47.911148 -2.278633 21,800 110 409 -1856
2021-10-23 10:45:08 GMT 47.912121 -2.282621 21,850 110 410 -1856
2021-10-23 10:45:07 GMT 47.912933 -2.285774 21,875 110 410 -1792
2021-10-23 10:45:06 GMT 47.913799 -2.289170 21,925 110 410 -1792
2021-10-23 10:45:04 GMT 47.915176 -2.294495 21,950 110 410 -1792
2021-10-23 10:45:03 GMT 47.915817 -2.297104 22,000 110 410 -1792
2021-10-23 10:45:01 GMT 47.917099 -2.302116 22,050 110 411 -1792
2021-10-23 10:44:59 GMT 47.918640 -2.308185 22,125 110 412 -1792
2021-10-23 10:44:58 GMT 47.919250 -2.310562 22,150 110 412 -1792
2021-10-23 10:44:56 GMT 47.921013 -2.317481 22,225 110 412 -1856
2021-10-23 10:44:54 GMT 47.921906 -2.320930 22,275 110 412 -1856
2021-10-23 10:44:53 GMT 47.922970 -2.325158 22,325 110 413 -1856
2021-10-23 10:44:51 GMT 47.924179 -2.329947 22,375 110 413 -1856
2021-10-23 10:44:49 GMT 47.925156 -2.333961 22,500 110 414 -1792
2021-10-23 10:44:47 GMT 47.926830 -2.340651 22,500 110 414 -1792
2021-10-23 10:44:46 GMT 47.928322 -2.346497 22,550 110 415 -1728
2021-10-23 10:44:43 GMT 47.929642 -2.351830 22,625 110 415 -1728
2021-10-23 10:44:42 GMT 47.931812 -2.360370 22,700 110 416 -1728
2021-10-23 10:44:40 GMT 47.931812 -2.360370 22,700 110 416 -1728
2021-10-23 10:44:38 GMT 47.932373 -2.362554 22,725 110 416 -1728
2021-10-23 10:44:36 GMT 47.933769 -2.368188 22,775 110 417 -1728
2021-10-23 10:44:35 GMT 47.934402 -2.370575 22,825 110 417 -1728
2021-10-23 10:44:34 GMT 47.935043 -2.373253 22,875 110 417 -1728
2021-10-23 10:44:32 GMT 47.936783 -2.379982 22,950 110 419 -1728
2021-10-23 10:44:30 GMT 47.938065 -2.385132 22,950 110 419 -1728
2021-10-23 10:44:27 GMT 47.939896 -2.392410 23,050 110 419 -1664
2021-10-23 10:44:26 GMT 47.940937 -2.396428 23,075 110 419 -1664
2021-10-23 10:44:24 GMT 47.942474 -2.402625 23,150 110 420 -1536
2021-10-23 10:44:23 GMT 47.943237 -2.405594 23,175 110 421 -1536
2021-10-23 10:44:22 GMT 47.945114 -2.412941 23,225 110 421 -1536
2021-10-23 10:44:20 GMT 47.945114 -2.412941 23,250 110 422 -1472
2021-10-23 10:44:18 GMT 47.946663 -2.419175 23,275 110 422 -1472
2021-10-23 10:44:16 GMT 47.948044 -2.424614 23,350 110 422 -1472
2021-10-23 10:44:15 GMT 47.948730 -2.427292 23,375 110 422 -1536
2021-10-23 10:44:14 GMT 47.949509 -2.430313 23,400 110 422 -1536
2021-10-23 10:44:12 GMT 47.950882 -2.435738 23,450 110 422 -1600
2021-10-23 10:44:11 GMT 47.951569 -2.438484 23,475 110 422 -1600
2021-10-23 10:44:10 GMT 47.952301 -2.441437 23,500 110 422 -1600
2021-10-23 10:44:07 GMT 47.953537 -2.446312 23,575 110 423 -1536
2021-10-23 10:44:06 GMT 47.954315 -2.449333 23,575 110 423 -1536
2021-10-23 10:44:05 GMT 47.955601 -2.454529 23,625 110 423 -1536
2021-10-23 10:44:03 GMT 47.956345 -2.457487 23,650 110 423 -1472
2021-10-23 10:44:02 GMT 47.957047 -2.460233 23,700 110 423 -1472
2021-10-23 10:44:01 GMT 47.957932 -2.463753 23,700 110 423 -1344
2021-10-23 10:43:59 GMT 47.959328 -2.469248 23,750 110 423 -1280
2021-10-23 10:43:58 GMT 47.959976 -2.471924 23,775 110 423 -1216
2021-10-23 10:43:57 GMT 47.960629 -2.474389 23,800 110 424 -1152
2021-10-23 10:43:55 GMT 47.962353 -2.481220 23,850 110 424 -1024
2021-10-23 10:43:54 GMT 47.963104 -2.484215 23,850 110 424 -960
2021-10-23 10:43:53 GMT 47.963703 -2.486643 23,875 110 424 -960
2021-10-23 10:43:52 GMT 47.964386 -2.489433 23,900 110 424 -896
2021-10-23 10:43:50 GMT 47.965843 -2.495164 23,925 110 424 -768
2021-10-23 10:43:49 GMT 47.966450 -2.497559 23,925 110 424 -640
2021-10-23 10:43:48 GMT 47.967148 -2.500305 23,950 110 424 -640
2021-10-23 10:43:45 GMT 47.968868 -2.507136 23,975 110 424 -512
2021-10-23 10:43:44 GMT 47.969467 -2.509621 23,975 110 424 -384
2021-10-23 10:43:43 GMT 47.971058 -2.515940 23,975 110 424 -320
2021-10-23 10:43:41 GMT 47.971802 -2.518897 24,000 110 424 -192
2021-10-23 10:43:40 GMT 47.972580 -2.521912 24,000 110 424 -128
2021-10-23 10:43:39 GMT 47.973198 -2.524391 24,000 110 424 0
2021-10-23 10:43:37 GMT 47.974960 -2.531525 24,000 110 424 0
2021-10-23 10:43:35 GMT 47.976837 -2.538872 24,000 110 424 64
2021-10-23 10:43:33 GMT 47.977524 -2.541618 24,000 110 424 64
2021-10-23 10:43:31 GMT 47.978210 -2.544365 24,000 110 424 64
2021-10-23 10:43:30 GMT 47.979065 -2.547701 24,000 110 424 64
2021-10-23 10:43:27 GMT 47.981392 -2.556997 23,975 110 426 64
2021-10-23 10:43:25 GMT 47.983063 -2.563591 23,975 110 426 64
2021-10-23 10:43:23 GMT 47.983810 -2.566575 23,975 110 426 64
2021-10-23 10:43:22 GMT 47.984482 -2.569359 23,975 110 426 0
2021-10-23 10:43:18 GMT 47.987595 -2.581718 23,975 110 426 -128
2021-10-23 10:43:16 GMT 47.989014 -2.587212 24,000 110 427 -192
2021-10-23 10:43:14 GMT 47.990158 -2.591881 24,000 110 426 -256
2021-10-23 10:43:11 GMT 47.992035 -2.599297 24,000 110 426 -384
2021-10-23 10:43:09 GMT 47.993637 -2.605614 24,050 110 426 -448
2021-10-23 10:43:07 GMT 47.995148 -2.611725 24,050 110 426 -576
2021-10-23 10:43:06 GMT 47.995823 -2.614464 24,050 110 426 -768
2021-10-23 10:43:02 GMT 47.998894 -2.626859 24,125 110 426 -896
2021-10-23 10:43:01 GMT 47.999542 -2.629303 24,125 110 426 -960
2021-10-23 10:42:59 GMT 48.001038 -2.635381 24,150 110 426 -1024
2021-10-23 10:42:58 GMT 48.001736 -2.638127 24,175 110 427 -1216
2021-10-23 10:42:56 GMT 48.003113 -2.643654 24,225 110 427 -1344
2021-10-23 10:42:55 GMT 48.003799 -2.646400 24,250 110 427 -1408
2021-10-23 10:42:52 GMT 48.005737 -2.654114 24,325 110 427 -1536
2021-10-23 10:42:51 GMT 48.006409 -2.656906 24,325 110 427 -1600
2021-10-23 10:42:49 GMT 48.008251 -2.664325 24,400 110 427 -1600
2021-10-23 10:42:46 GMT 48.009277 -2.668481 24,450 110 427 -1600
2021-10-23 10:42:45 GMT 48.010071 -2.671532 24,475 110 428 -1536
2021-10-23 10:42:44 GMT 48.012039 -2.679497 24,675 110 428 -1536
2021-10-23 10:42:39 GMT 48.014397 -2.688904 24,675 110 428 -1408
2021-10-23 10:42:37 GMT 48.015427 -2.693092 24,675 110 428 -1408
2021-10-23 10:42:36 GMT 48.016117 -2.695876 24,700 110 428 -1344
2021-10-23 10:42:34 GMT 48.017654 -2.701932 24,750 110 430 -1152
2021-10-23 10:42:32 GMT 48.019455 -2.709160 24,775 110 430 -1024
2021-10-23 10:42:30 GMT 48.020554 -2.713554 24,800 110 430 -1024
2021-10-23 10:42:28 GMT 48.021973 -2.719391 24,850 110 430 -896
2021-10-23 10:42:25 GMT 48.024078 -2.727708 24,925 110 430 -704
2021-10-23 10:42:22 GMT 48.027760 -2.742497 24,925 110 430 -576
2021-10-23 10:42:20 GMT 48.029060 -2.747779 24,950 110 430 -448
2021-10-23 10:42:18 GMT 48.029060 -2.747779 24,950 110 430 -448
2021-10-23 10:42:17 GMT 48.029758 -2.750526 24,975 110 430 -320
2021-10-23 10:42:15 GMT 48.031342 -2.756935 24,975 110 431 -256
2021-10-23 10:42:12 GMT 48.032959 -2.763336 24,975 110 432 -128
2021-10-23 10:42:11 GMT 48.033875 -2.766975 24,975 110 432 -64
2021-10-23 10:42:09 GMT 48.034740 -2.770597 24,975 110 431 -64
2021-10-23 10:42:07 GMT 48.036648 -2.778133 24,975 110 430 -64
2021-10-23 10:42:05 GMT 48.037949 -2.783455 24,975 110 430 0
2021-10-23 10:42:04 GMT 48.039001 -2.787575 24,975 110 430 0
2021-10-23 10:42:01 GMT 48.041073 -2.795950 25,000 110 429 0
2021-10-23 10:42:00 GMT 48.041702 -2.798424 24,975 110 428 64
2021-10-23 10:41:57 GMT 48.043854 -2.807076 24,975 110 427 0
2021-10-23 10:41:55 GMT 48.045090 -2.812019 24,975 110 426 0
2021-10-23 10:41:53 GMT 48.046097 -2.816139 25,000 110 424 0
2021-10-23 10:41:51 GMT 48.047882 -2.823349 25,000 110 423 0
2021-10-23 10:41:50 GMT 48.048706 -2.826585 25,000 110 422 -64
2021-10-23 10:41:48 GMT 48.050079 -2.832069 25,000 110 417 -64
2021-10-23 10:41:46 GMT 48.052757 -2.842994 25,000 110 417 -64
2021-10-23 10:41:44 GMT 48.052757 -2.842994 25,000 110 417 -64
2021-10-23 10:41:43 GMT 48.053455 -2.845670 25,000 110 415 -64
2021-10-23 10:41:41 GMT 48.054749 -2.851089 25,000 110 413 -64
2021-10-23 10:41:39 GMT 48.056015 -2.856164 25,000 110 410 0
2021-10-23 10:41:37 GMT 48.057358 -2.861526 25,000 110 410 0
2021-10-23 10:41:35 GMT 48.058548 -2.866333 25,025 110 409 0
2021-10-23 10:41:33 GMT 48.059921 -2.871895 25,025 110 406 0
2021-10-23 10:41:31 GMT 48.061340 -2.877663 25,000 110 406 0
2021-10-23 10:41:30 GMT 48.062160 -2.880812 25,000 110 405 64
2021-10-23 10:41:28 GMT 48.063354 -2.885834 25,000 110 404 64
2021-10-23 10:41:26 GMT 48.064209 -2.889193 25,000 110 404 64
2021-10-23 10:41:25 GMT 48.064907 -2.892080 25,000 110 404 64
2021-10-23 10:41:24 GMT 48.065781 -2.895515 25,000 110 404 64
2021-10-23 10:41:23 GMT 48.066422 -2.898125 25,000 110 404 0
2021-10-23 10:41:22 GMT 48.067108 -2.900940 25,000 110 404 0
2021-10-23 10:41:20 GMT 48.068024 -2.904648 25,000 110 404 0
2021-10-23 10:41:18 GMT 48.069397 -2.910141 25,000 110 404 0
2021-10-23 10:41:15 GMT 48.071331 -2.917926 25,000 110 404 0
2021-10-23 10:41:14 GMT 48.073792 -2.927856 25,000 110 404 0
2021-10-23 10:41:11 GMT 48.073792 -2.927856 25,000 110 404 0
2021-10-23 10:41:09 GMT 48.075054 -2.932857 25,000 110 404 0
2021-10-23 10:41:08 GMT 48.075668 -2.935478 25,000 110 404 0
2021-10-23 10:41:06 GMT 48.079430 -2.950604 25,000 110 404 0
2021-10-23 10:41:03 GMT 48.079430 -2.950604 25,000 110 404 0
2021-10-23 10:41:01 GMT 48.080082 -2.953210 25,000 110 404 0
2021-10-23 10:41:00 GMT 48.080826 -2.956097 25,000 110 404 0
2021-10-23 10:40:59 GMT 48.083542 -2.967064 25,000 110 404 0
2021-10-23 10:40:56 GMT 48.083542 -2.967064 25,000 110 404 0
2021-10-23 10:40:54 GMT 48.084824 -2.972351 25,000 110 404 0
2021-10-23 10:40:52 GMT 48.086136 -2.977577 25,000 110 404 0
2021-10-23 10:40:49 GMT 48.088276 -2.986168 25,000 110 404 0
2021-10-23 10:40:47 GMT 48.090137 -2.993774 25,000 110 406 -64
2021-10-23 10:40:44 GMT 48.091442 -2.999056 25,000 110 407 -64
2021-10-23 10:40:42 GMT 48.092793 -3.004549 25,000 110 407 -64
2021-10-23 10:40:40 GMT 48.093723 -3.008282 25,000 110 407 -64
2021-10-23 10:40:39 GMT 48.094345 -3.010872 25,000 110 409 -128
2021-10-23 10:40:37 GMT 48.096004 -3.017508 25,000 110 409 -128
2021-10-23 10:40:36 GMT 48.096981 -3.021452 25,000 110 410 -128
2021-10-23 10:40:34 GMT 48.097866 -3.025184 25,025 110 411 -128
2021-10-23 10:40:32 GMT 48.100250 -3.034698 25,025 110 411 -128
2021-10-23 10:40:31 GMT 48.100250 -3.034698 25,025 110 412 -128
2021-10-23 10:40:29 GMT 48.101215 -3.038706 25,025 110 413 -128
2021-10-23 10:40:28 GMT 48.102196 -3.042720 25,025 110 413 -64
2021-10-23 10:40:25 GMT 48.103870 -3.049410 25,025 110 415 -64
2021-10-23 10:40:24 GMT 48.104599 -3.052345 25,025 110 416 -64
2021-10-23 10:40:22 GMT 48.107162 -3.062851 25,025 110 419 -64
2021-10-23 10:40:20 GMT 48.107162 -3.062851 25,025 110 418 -64
2021-10-23 10:40:16 GMT 48.109634 -3.072876 25,025 110 422 0
2021-10-23 10:40:14 GMT 48.111465 -3.080292 25,000 110 425 0
2021-10-23 10:40:11 GMT 48.113388 -3.087982 25,000 110 428 0
2021-10-23 10:40:05 GMT 48.117920 -3.106316 25,000 110 435 64
2021-10-23 10:40:01 GMT 48.121002 -3.118990 24,975 110 441 64
2021-10-23 10:39:56 GMT 48.123825 -3.130417 24,975 110 441 64
2021-10-23 10:39:53 GMT 48.125656 -3.137833 24,975 110 446 0
2021-10-23 10:39:50 GMT 48.128265 -3.148544 24,975 110 447 0
2021-10-23 10:39:48 GMT 48.129044 -3.151703 24,975 110 448 0
2021-10-23 10:39:46 GMT 48.130966 -3.159531 24,975 110 449 0
2021-10-23 10:39:43 GMT 48.132797 -3.167152 25,000 110 449 0
2021-10-23 10:39:40 GMT 48.134968 -3.175894 25,000 109 449 64
2021-10-23 10:39:33 GMT 48.140087 -3.196881 24,975 110 450 128
2021-10-23 10:39:30 GMT 48.141907 -3.204437 24,975 109 449 64
2021-10-23 10:39:28 GMT 48.144047 -3.213219 24,975 109 450 64
2021-10-23 10:39:23 GMT 48.147034 -3.225449 24,975 109 450 -64
2021-10-23 10:39:18 GMT 48.150284 -3.238924 25,000 109 451 -256
2021-10-23 10:39:13 GMT 48.154266 -3.255386 25,025 109 452 -512
2021-10-23 10:39:10 GMT 48.156380 -3.264207 25,050 109 453 -640
2021-10-23 10:39:03 GMT 48.161819 -3.286954 25,175 109 455 -1152
2021-10-23 10:39:00 GMT 48.163643 -3.294597 25,225 109 456 -1408
2021-10-23 10:38:55 GMT 48.166950 -3.308547 25,550 109 456 -1664
2021-10-23 10:38:52 GMT 48.169415 -3.318955 25,450 109 456 -1728
2021-10-23 10:38:47 GMT 48.172394 -3.331459 25,850 109 456 -2432
2021-10-23 10:38:43 GMT 48.175838 -3.345987 25,750 109 456 -2432
2021-10-23 10:38:40 GMT 48.177704 -3.353718 25,875 109 456 -2432
2021-10-23 10:38:35 GMT 48.181240 -3.368611 26,075 109 458 -2240
2021-10-23 10:38:32 GMT 48.183426 -3.377521 26,225 109 458 -2048
2021-10-23 10:38:28 GMT 48.185349 -3.385550 26,275 109 459 -1984
2021-10-23 10:38:25 GMT 48.188225 -3.397522 26,475 110 462 -1408
2021-10-23 10:38:22 GMT 48.190502 -3.406774 26,500 110 462 -1344
2021-10-23 10:38:19 GMT 48.192600 -3.415447 26,525 110 463 -1408
2021-10-23 10:38:15 GMT 48.195625 -3.427807 26,625 110 465 -1472
2021-10-23 10:38:12 GMT 48.197845 -3.436819 26,925 110 467 -1600
2021-10-23 10:38:09 GMT 48.200134 -3.446256 26,800 109 467 -1728
2021-10-23 10:38:06 GMT 48.202282 -3.455056 26,925 109 469 -1856
2021-10-23 10:38:02 GMT 48.205585 -3.469078 27,025 110 471 -2176
2021-10-23 10:37:59 GMT 48.207077 -3.475221 27,100 112 472 -2624
2021-10-23 10:37:56 GMT 48.209869 -3.485774 27,325 115 472 -3264
2021-10-23 10:37:52 GMT 48.216621 -3.506157 27,550 119 471 -3776
2021-10-23 10:37:49 GMT 48.216621 -3.506157 27,675 121 470 -3968
2021-10-23 10:37:47 GMT 48.218388 -3.510638 27,875 124 468 -4224
2021-10-23 10:37:44 GMT 48.222427 -3.520203 28,400 130 464 -4544
2021-10-23 10:37:39 GMT 48.228424 -3.532386 28,400 130 464 -4544
2021-10-23 10:37:37 GMT 48.231377 -3.537887 28,550 131 463 -4480
2021-10-23 10:37:33 GMT 48.236916 -3.547138 28,925 137 460 -3968
2021-10-23 10:37:30 GMT 48.240967 -3.553282 29,300 139 460 -3840
2021-10-23 10:37:27 GMT 48.246185 -3.560697 29,325 141 459 -3648
2021-10-23 10:37:24 GMT 48.251221 -3.567035 30,000 145 457 -3520
2021-10-23 10:37:21 GMT 48.255028 -3.571496 29,600 145 457 -3520
2021-10-23 10:37:18 GMT 48.260880 -3.577810 29,700 147 457 -3456
2021-10-23 10:37:14 GMT 48.268341 -3.585012 30,250 153 457 -3136
2021-10-23 10:37:11 GMT 48.274612 -3.590276 30,175 153 457 -3136
2021-10-23 10:37:08 GMT 48.278721 -3.593397 30,275 155 457 -3008
2021-10-23 10:37:05 GMT 48.285423 -3.598022 30,450 158 457 -2752
2021-10-23 10:37:02 GMT 48.293701 -3.602882 30,650 161 458 -2560
2021-10-23 10:36:58 GMT 48.297684 -3.604995 30,800 165 458 -2176
2021-10-23 10:36:54 GMT 48.307022 -3.609081 30,900 166 458 -2048
2021-10-23 10:36:51 GMT 48.313202 -3.611333 31,000 173 459 -1920
2021-10-23 10:36:49 GMT 48.319035 -3.612912 31,075 171 459 -1920
2021-10-23 10:36:46 GMT 48.321968 -3.613707 31,200 176 459 -1984
2021-10-23 10:36:43 GMT 48.329590 -3.614995 31,475 176 459 -1984
2021-10-23 10:36:40 GMT 48.337654 -3.615803 31,375 179 460 -1984
2021-10-23 10:36:36 GMT 48.343140 -3.615981 31,450 181 460 -1984
2021-10-23 10:36:34 GMT 48.348457 -3.615803 31,575 185 460 -1920
2021-10-23 10:36:31 GMT 48.354858 -3.615136 32,000 198 465 -896
2021-10-23 10:36:28 GMT 48.361629 -3.613996 31,775 190 461 -1600
2021-10-23 10:36:23 GMT 48.380901 -3.608069 31,900 196 464 -1024
2021-10-23 10:36:19 GMT 48.380901 -3.608069 31,950 199 465 -832
2021-10-23 10:36:16 GMT 48.390701 -3.603375 32,000 203 467 -384
2021-10-23 10:36:14 GMT 48.390701 -3.603375 32,000 203 467 -384
2021-10-23 10:36:10 GMT 48.398758 -3.598727 32,000 205 467 -128
2021-10-23 10:36:07 GMT 48.405296 -3.594409 32,000 209 469 64
2021-10-23 10:36:05 GMT 48.410931 -3.590144 32,000 211 470 64
2021-10-23 10:36:02 GMT 48.412994 -3.588374 32,000 212 471 64
2021-10-23 10:35:59 GMT 48.420639 -3.581543 32,000 216 471 0
2021-10-23 10:35:56 GMT 48.425583 -3.576613 32,000 218 472 0
2021-10-23 10:35:53 GMT 48.431030 -3.570627 32,000 221 474 0
2021-10-23 10:35:49 GMT 48.442490 -3.555884 32,000 224 475 0
2021-10-23 10:35:46 GMT 48.442490 -3.555884 32,000 225 475 -64
2021-10-23 10:35:42 GMT 48.448380 -3.546894 32,000 230 477 0
2021-10-23 10:35:38 GMT 48.454781 -3.536008 32,000 233 478 0
2021-10-23 10:35:36 GMT 48.463440 -3.518372 32,000 236 479 0
2021-10-23 10:35:31 GMT 48.463440 -3.518372 32,000 246 481 0
2021-10-23 10:35:28 GMT 48.467628 -3.508614 32,000 242 480 0
2021-10-23 10:35:25 GMT 48.470901 -3.499920 32,000 251 483 64
2021-10-23 10:35:22 GMT 48.473869 -3.491267 32,000 251 483 64
2021-10-23 10:35:19 GMT 48.477676 -3.478441 32,000 255 485 0
2021-10-23 10:35:16 GMT 48.478912 -3.473792 32,000 253 484 64
2021-10-23 10:35:12 GMT 48.482342 -3.459248 32,000 256 485 0
2021-10-23 10:35:07 GMT 48.484901 -3.445370 32,000 262 486 64
2021-10-23 10:35:03 GMT 48.486671 -3.433155 32,000 261 487 64
2021-10-23 10:35:00 GMT 48.487793 -3.423227 32,000 263 486 -192
2021-10-23 10:34:56 GMT 48.489182 -3.407786 32,000 263 485 -64
2021-10-23 10:34:50 GMT 48.491959 -3.375268 31,975 263 485 -64
2021-10-23 10:34:46 GMT 48.491959 -3.375268 32,000 263 485 192
2021-10-23 10:34:43 GMT 48.492920 -3.364281 31,975 263 485 128
2021-10-23 10:34:40 GMT 48.493607 -3.356179 32,000 263 486 -128
2021-10-23 10:34:37 GMT 48.494907 -3.340422 32,000 263 486 -128
2021-10-23 10:34:32 GMT 48.496075 -3.327340 32,000 263 486 128
2021-10-23 10:34:29 GMT 48.496811 -3.318646 32,000 263 486 0
2021-10-23 10:34:27 GMT 48.497471 -3.310571 32,000 263 486 0
2021-10-23 10:34:25 GMT 48.497910 -3.305547 32,000 263 486 0
2021-10-23 10:34:21 GMT 48.499191 -3.290476 32,000 263 486 0
2021-10-23 10:34:18 GMT 48.499935 -3.281732 32,000 263 486 0
2021-10-23 10:34:15 GMT 48.500870 -3.270673 32,000 263 486 0
2021-10-23 10:34:12 GMT 48.501751 -3.260265 32,000 263 486 0
2021-10-23 10:34:09 GMT 48.502533 -3.251178 32,000 263 486 0
2021-10-23 10:34:07 GMT 48.503220 -3.242798 32,000 263 486 0
2021-10-23 10:34:04 GMT 48.503799 -3.236052 32,000 263 486 0
2021-10-23 10:34:00 GMT 48.504967 -3.222319 32,000 263 486 0
2021-10-23 10:33:57 GMT 48.506012 -3.209557 32,000 263 486 0
2021-10-23 10:33:55 GMT 48.506687 -3.201503 32,000 263 486 0
2021-10-23 10:33:50 GMT 48.507759 -3.189071 32,000 263 486 0
2021-10-23 10:33:47 GMT 48.508942 -3.174978 32,000 263 486 0
2021-10-23 10:33:45 GMT 48.510864 -3.151809 32,000 263 486 0
2021-10-23 10:33:39 GMT 48.510864 -3.151809 32,000 263 486 0
2021-10-23 10:33:36 GMT 48.511734 -3.141456 32,000 263 486 0
2021-10-23 10:33:34 GMT 48.512283 -3.134413 32,000 263 486 -64
2021-10-23 10:33:29 GMT 48.514069 -3.112934 32,000 263 485 0
2021-10-23 10:33:26 GMT 48.514603 -3.106529 32,000 263 485 0
2021-10-23 10:33:24 GMT 48.515301 -3.098145 32,000 263 485 0
2021-10-23 10:33:19 GMT 48.516884 -3.079063 32,000 263 485 64
2021-10-23 10:33:16 GMT 48.517441 -3.071980 32,000 263 485 64
2021-10-23 10:33:13 GMT 48.518097 -3.064270 32,000 263 485 0
2021-10-23 10:33:10 GMT 48.518929 -3.054271 32,000 263 485 64
2021-10-23 10:33:06 GMT 48.520000 -3.041189 32,000 263 485 64
2021-10-23 10:33:04 GMT 48.520744 -3.032082 32,000 263 486 -64
2021-10-23 10:33:01 GMT 48.521439 -3.023353 32,000 263 486 -64
2021-10-23 10:32:59 GMT 48.522125 -3.015325 32,000 263 486 -64
2021-10-23 10:32:56 GMT 48.522995 -3.004902 32,000 263 486 0
2021-10-23 10:32:53 GMT 48.524643 -2.984760 32,000 263 486 64
2021-10-23 10:32:50 GMT 48.524643 -2.984760 32,000 263 486 0
2021-10-23 10:32:46 GMT 48.526005 -2.967971 32,000 264 486 -64
2021-10-23 10:32:43 GMT 48.527115 -2.954548 32,000 264 486 0
2021-10-23 10:32:38 GMT 48.527756 -2.946449 32,000 264 486 0
2021-10-23 10:32:35 GMT 48.529732 -2.921930 32,000 264 486 0
2021-10-23 10:32:31 GMT 48.529732 -2.921930 32,000 264 487 0
2021-10-23 10:32:28 GMT 48.530914 -2.907433 32,000 264 487 0
2021-10-23 10:32:25 GMT 48.531464 -2.900743 32,000 264 487 0
2021-10-23 10:32:22 GMT 48.532608 -2.886306 32,000 264 487 0
2021-10-23 10:32:19 GMT 48.533081 -2.880875 32,000 264 487 64
2021-10-23 10:32:14 GMT 48.534531 -2.862713 32,000 264 487 0
2021-10-23 10:32:11 GMT 48.535458 -2.851241 32,000 264 487 64
2021-10-23 10:32:07 GMT 48.536293 -2.840833 32,000 264 487 0
2021-10-23 10:32:04 GMT 48.536900 -2.833099 32,000 264 487 0
2021-10-23 10:32:02 GMT 48.537457 -2.826377 32,000 264 487 0
2021-10-23 10:31:59 GMT 48.538296 -2.815969 32,000 264 487 0
2021-10-23 10:31:56 GMT 48.539135 -2.805489 32,000 264 487 64
2021-10-23 10:31:53 GMT 48.540016 -2.794719 32,000 264 487 -64
2021-10-23 10:31:48 GMT 48.541229 -2.779541 32,000 264 487 0
2021-10-23 10:31:45 GMT 48.542221 -2.767428 32,000 264 487 64
2021-10-23 10:31:39 GMT 48.543961 -2.745878 32,000 264 487 -64
2021-10-23 10:31:36 GMT 48.544785 -2.735455 32,000 264 487 0
2021-10-23 10:31:33 GMT 48.545513 -2.726055 32,000 264 487 0
2021-10-23 10:31:30 GMT 48.546444 -2.714274 32,000 264 487 -64
2021-10-23 10:31:25 GMT 48.547897 -2.696087 32,000 264 487 -64
2021-10-23 10:31:22 GMT 48.548725 -2.686013 32,000 264 487 -64
2021-10-23 10:31:18 GMT 48.549328 -2.677917 32,000 264 487 0
2021-10-23 10:31:15 GMT 48.550507 -2.663480 32,000 264 487 64
2021-10-23 10:31:13 GMT 48.551285 -2.653339 32,000 264 486 128
2021-10-23 10:31:09 GMT 48.552074 -2.643296 32,000 264 487 0
2021-10-23 10:31:06 GMT 48.552818 -2.633538 32,000 264 487 -64
2021-10-23 10:31:02 GMT 48.553986 -2.619011 32,000 264 487 0
2021-10-23 10:30:56 GMT 48.555679 -2.597140 32,000 264 487 0
2021-10-23 10:30:52 GMT 48.556503 -2.587069 32,000 264 487 0
2021-10-23 10:30:48 GMT 48.557373 -2.575942 32,000 264 487 0
2021-10-23 10:30:45 GMT 48.559338 -2.550635 32,000 264 487 -64
2021-10-23 10:30:42 GMT 48.559338 -2.550635 32,000 264 487 -64
2021-10-23 10:30:38 GMT 48.559944 -2.542901 32,000 264 487 0
2021-10-23 10:30:34 GMT 48.561012 -2.529096 32,000 264 487 0
2021-10-23 10:30:30 GMT 48.562828 -2.505533 32,000 264 487 0
2021-10-23 10:30:27 GMT 48.562828 -2.505533 32,000 264 487 0
2021-10-23 10:30:24 GMT 48.563759 -2.493752 32,000 264 487 0
2021-10-23 10:30:21 GMT 48.564560 -2.483614 32,000 264 487 0
2021-10-23 10:30:17 GMT 48.565384 -2.472839 32,000 264 488 0
2021-10-23 10:30:14 GMT 48.566208 -2.462416 32,000 264 488 0
2021-10-23 10:30:12 GMT 48.566692 -2.455661 32,000 264 488 0
2021-10-23 10:30:10 GMT 48.567490 -2.445514 32,000 264 488 0
2021-10-23 10:30:07 GMT 48.568954 -2.426288 32,000 264 488 0
2021-10-23 10:30:04 GMT 48.568954 -2.426288 32,000 264 488 0
2021-10-23 10:30:01 GMT 48.570007 -2.413189 32,000 264 488 0
2021-10-23 10:29:58 GMT 48.570370 -2.408463 32,000 264 488 0
2021-10-23 10:29:55 GMT 48.571301 -2.395959 32,000 264 488 0
2021-10-23 10:29:53 GMT 48.571720 -2.390538 32,000 264 488 0
2021-10-23 10:29:50 GMT 48.572754 -2.377061 32,000 264 488 0
2021-10-23 10:29:46 GMT 48.573536 -2.366903 32,000 264 488 0
2021-10-23 10:29:43 GMT 48.574493 -2.354103 32,000 264 488 0
2021-10-23 10:29:41 GMT 48.574886 -2.349050 32,000 264 488 0
2021-10-23 10:29:38 GMT 48.576469 -2.328090 32,000 264 488 0
2021-10-23 10:29:35 GMT 48.576469 -2.328090 32,000 264 488 0
2021-10-23 10:29:33 GMT 48.576889 -2.322741 32,000 264 488 0
2021-10-23 10:29:29 GMT 48.578064 -2.307199 32,000 264 488 0
2021-10-23 10:29:25 GMT 48.579025 -2.294030 32,000 264 488 0
2021-10-23 10:29:22 GMT 48.579773 -2.284578 32,000 264 488 0
2021-10-23 10:29:19 GMT 48.580536 -2.274452 32,000 264 488 0
2021-10-23 10:29:16 GMT 48.581314 -2.263958 32,000 264 488 0
2021-10-23 10:29:13 GMT 48.581955 -2.255859 32,000 264 488 0
2021-10-23 10:29:10 GMT 48.582752 -2.245042 32,000 264 488 0
2021-10-23 10:29:07 GMT 48.583374 -2.236985 32,000 264 488 0
2021-10-23 10:29:05 GMT 48.584106 -2.227126 32,000 264 488 0
2021-10-23 10:29:03 GMT 48.584568 -2.220756 32,000 264 488 0
2021-10-23 10:29:00 GMT 48.585388 -2.209942 32,000 264 488 0
2021-10-23 10:28:57 GMT 48.586121 -2.200153 32,000 264 488 0
2021-10-23 10:28:54 GMT 48.586803 -2.190977 32,000 264 487 0
2021-10-23 10:28:52 GMT 48.587402 -2.182899 32,000 264 488 0
2021-10-23 10:28:50 GMT 48.587921 -2.176160 32,000 264 488 0
2021-10-23 10:28:45 GMT 48.589233 -2.158532 32,000 264 487 0
2021-10-23 10:28:42 GMT 48.589737 -2.151771 32,000 264 487 0
2021-10-23 10:28:39 GMT 48.590469 -2.141982 32,000 264 487 0
2021-10-23 10:28:36 GMT 48.591366 -2.129830 32,000 264 487 0
2021-10-23 10:28:33 GMT 48.592209 -2.118389 32,000 264 487 0
2021-10-23 10:28:30 GMT 48.593040 -2.106845 32,000 264 487 0
2021-10-23 10:28:27 GMT 48.593925 -2.095064 32,000 264 487 0
2021-10-23 10:28:23 GMT 48.594669 -2.084583 32,000 264 487 0
2021-10-23 10:28:21 GMT 48.595043 -2.079813 32,000 264 487 0
2021-10-23 10:28:19 GMT 48.595551 -2.073106 32,000 264 487 0
2021-10-23 10:28:16 GMT 48.596439 -2.060948 32,000 264 487 0
2021-10-23 10:28:13 GMT 48.597153 -2.051486 32,000 264 487 0
2021-10-23 10:28:11 GMT 48.597557 -2.045698 32,000 264 487 0
2021-10-23 10:28:07 GMT 48.599030 -2.025780 32,000 264 487 0
2021-10-23 10:28:03 GMT 48.599697 -2.016642 32,000 264 487 0
2021-10-23 10:28:00 GMT 48.600357 -2.007892 32,000 264 487 0
2021-10-23 10:27:56 GMT 48.601318 -1.994723 32,000 264 488 0
2021-10-23 10:27:52 GMT 48.602234 -1.982187 32,000 264 488 0
2021-10-23 10:27:49 GMT 48.603237 -1.968649 32,000 264 488 0
2021-10-23 10:27:44 GMT 48.604294 -1.953806 32,000 264 488 0
2021-10-23 10:27:42 GMT 48.605713 -1.934509 32,000 264 488 0
2021-10-23 10:27:39 GMT 48.605713 -1.934509 32,000 264 488 0
2021-10-23 10:27:36 GMT 48.606308 -1.926366 32,000 264 489 0
2021-10-23 10:27:32 GMT 48.607147 -1.914512 32,000 264 488 0
2021-10-23 10:27:29 GMT 48.608047 -1.902325 32,000 264 489 0
2021-10-23 10:27:26 GMT 48.609146 -1.886757 32,000 264 489 0
2021-10-23 10:27:24 GMT 48.609146 -1.886757 32,000 264 489 0
2021-10-23 10:27:22 GMT 48.609650 -1.880000 32,000 264 489 0
2021-10-23 10:27:20 GMT 48.610107 -1.873521 32,000 264 490 -64
2021-10-23 10:27:16 GMT 48.612488 -1.840280 32,000 264 490 -64
2021-10-23 10:27:11 GMT 48.612488 -1.840280 32,000 264 492 -64
2021-10-23 10:27:08 GMT 48.612946 -1.833801 32,000 264 492 -64
2021-10-23 10:27:06 GMT 48.613449 -1.826970 32,000 264 493 -64
2021-10-23 10:27:04 GMT 48.614090 -1.817815 32,025 264 492 -64
2021-10-23 10:27:01 GMT 48.615097 -1.803800 32,000 264 493 -64
2021-10-23 10:26:58 GMT 48.615875 -1.793166 32,000 264 496 0
2021-10-23 10:26:53 GMT 48.616745 -1.780489 32,000 264 496 0
2021-10-23 10:26:51 GMT 48.617203 -1.774292 32,000 264 497 0
2021-10-23 10:26:49 GMT 48.617527 -1.769449 32,000 264 498 0
2021-10-23 10:26:45 GMT 48.618736 -1.752536 32,000 264 501 64
2021-10-23 10:26:42 GMT 48.619576 -1.740393 32,000 264 502 64
2021-10-23 10:26:39 GMT 48.620087 -1.733445 31,975 264 507 0
2021-10-23 10:26:35 GMT 48.621113 -1.718782 31,975 264 506 0
2021-10-23 10:26:32 GMT 48.622009 -1.706191 31,975 264 507 0
2021-10-23 10:26:30 GMT 48.623207 -1.688570 32,000 264 508 0
2021-10-23 10:26:27 GMT 48.623207 -1.688570 32,000 265 507 0
2021-10-23 10:26:23 GMT 48.624069 -1.676612 32,000 264 508 0
2021-10-23 10:26:21 GMT 48.624462 -1.670934 32,000 264 508 0
2021-10-23 10:26:19 GMT 48.624931 -1.664646 32,000 264 507 0
2021-10-23 10:26:16 GMT 48.625717 -1.653372 32,000 265 507 0
2021-10-23 10:26:13 GMT 48.626724 -1.638935 32,000 264 507 0
2021-10-23 10:26:10 GMT 48.627304 -1.630458 32,000 264 507 0
2021-10-23 10:26:07 GMT 48.628376 -1.615352 32,000 265 507 0
2021-10-23 10:26:03 GMT 48.628979 -1.606895 32,000 265 507 0
2021-10-23 10:26:01 GMT 48.629585 -1.598077 32,000 265 507 0
2021-10-23 10:25:59 GMT 48.629929 -1.592806 32,000 265 507 0
2021-10-23 10:25:56 GMT 48.630753 -1.581186 32,000 265 507 0
2021-10-23 10:25:53 GMT 48.631401 -1.572057 32,000 265 507 0
2021-10-23 10:25:50 GMT 48.632263 -1.559425 32,000 265 507 0
2021-10-23 10:25:47 GMT 48.632904 -1.550622 32,000 265 507 0
2021-10-23 10:25:45 GMT 48.633316 -1.544283 32,000 265 507 0
2021-10-23 10:25:42 GMT 48.634094 -1.533367 32,000 265 507 0
2021-10-23 10:25:40 GMT 48.634659 -1.525293 32,000 265 507 0
2021-10-23 10:25:38 GMT 48.635010 -1.520339 32,000 265 507 0
2021-10-23 10:25:35 GMT 48.635925 -1.506606 32,000 265 507 0
2021-10-23 10:25:32 GMT 48.636566 -1.497873 32,000 265 507 0
2021-10-23 10:25:30 GMT 48.637619 -1.482027 32,000 265 507 0
2021-10-23 10:25:28 GMT 48.637619 -1.482027 32,000 265 507 0
2021-10-23 10:25:25 GMT 48.638168 -1.473929 32,000 265 506 0
2021-10-23 10:25:21 GMT 48.639454 -1.455616 32,000 265 506 0
2021-10-23 10:25:19 GMT 48.639778 -1.450412 32,000 265 506 0
2021-10-23 10:25:14 GMT 48.641052 -1.432096 32,000 265 506 0
2021-10-23 10:25:10 GMT 48.641968 -1.418363 32,000 265 506 0
2021-10-23 10:25:08 GMT 48.643551 -1.395191 32,000 265 506 0
2021-10-23 10:25:04 GMT 48.643551 -1.395191 32,000 265 506 0
2021-10-23 10:25:01 GMT 48.644669 -1.378712 32,000 265 506 0
2021-10-23 10:24:59 GMT 48.644669 -1.378712 32,000 265 506 0
2021-10-23 10:24:56 GMT 48.645172 -1.370967 32,000 265 506 0
2021-10-23 10:24:52 GMT 48.646111 -1.356884 32,000 265 506 0
2021-10-23 10:24:49 GMT 48.646820 -1.345966 32,000 265 506 0
2021-10-23 10:24:45 GMT 48.647827 -1.331247 32,000 265 507 0
2021-10-23 10:24:41 GMT 48.648720 -1.317853 32,000 265 506 0
2021-10-23 10:24:39 GMT 48.649338 -1.309063 32,000 265 507 0
2021-10-23 10:24:36 GMT 48.649933 -1.299556 32,000 265 507 0
2021-10-23 10:24:33 GMT 48.650581 -1.290460 32,000 265 507 0
2021-10-23 10:24:30 GMT 48.651978 -1.268993 32,000 265 507 0
2021-10-23 10:24:28 GMT 48.651978 -1.268993 32,000 265 507 0
2021-10-23 10:24:25 GMT 48.652725 -1.257723 32,000 265 507 0
2021-10-23 10:24:22 GMT 48.653095 -1.252080 32,000 265 507 0
2021-10-23 10:24:19 GMT 48.653885 -1.240154 32,000 265 507 0
2021-10-23 10:24:17 GMT 48.654282 -1.234483 32,000 265 506 0
2021-10-23 10:24:14 GMT 48.655144 -1.221145 32,000 265 506 0
2021-10-23 10:24:12 GMT 48.655609 -1.214482 32,000 265 506 0
2021-10-23 10:24:10 GMT 48.656158 -1.206383 32,000 265 506 0
2021-10-23 10:24:08 GMT 48.656662 -1.198637 32,000 265 506 0
2021-10-23 10:24:04 GMT 48.657471 -1.186017 32,000 265 506 0
2021-10-23 10:24:02 GMT 48.657806 -1.181101 32,000 265 505 0
2021-10-23 10:24:00 GMT 48.658447 -1.171241 32,000 265 505 0
2021-10-23 10:23:58 GMT 48.658726 -1.167081 32,000 265 505 0
2021-10-23 10:23:55 GMT 48.659546 -1.154410 32,000 265 505 0
2021-10-23 10:23:53 GMT 48.660030 -1.147059 32,000 265 505 0
2021-10-23 10:23:51 GMT 48.660637 -1.138314 32,000 265 504 0
2021-10-23 10:23:48 GMT 48.661011 -1.132366 32,000 265 504 0
2021-10-23 10:23:45 GMT 48.661835 -1.120112 32,000 265 504 0
2021-10-23 10:23:42 GMT 48.662403 -1.110992 32,000 265 504 0
2021-10-23 10:23:40 GMT 48.662979 -1.102577 32,000 265 504 0
2021-10-23 10:23:37 GMT 48.663567 -1.093140 32,000 265 503 0
2021-10-23 10:23:34 GMT 48.665085 -1.069688 32,000 265 503 0
2021-10-23 10:23:31 GMT 48.665085 -1.069688 32,000 265 503 0
2021-10-23 10:23:28 GMT 48.665634 -1.061026 32,000 265 502 0
2021-10-23 10:23:26 GMT 48.666080 -1.054326 32,000 265 502 0
2021-10-23 10:23:23 GMT 48.666641 -1.045321 32,000 265 502 0
2021-10-23 10:23:21 GMT 48.667294 -1.035534 32,000 265 502 0
2021-10-23 10:23:19 GMT 48.667618 -1.030619 32,000 265 501 0
2021-10-23 10:23:17 GMT 48.668179 -1.021945 32,000 265 501 0
2021-10-23 10:23:15 GMT 48.668594 -1.015007 32,000 265 501 0
2021-10-23 10:23:13 GMT 48.669067 -1.007996 32,000 265 501 0
2021-10-23 10:23:10 GMT 48.669575 -1.000045 32,000 265 501 0
2021-10-23 10:23:08 GMT 48.670132 -0.991299 32,000 265 501 0
2021-10-23 10:23:04 GMT 48.671062 -0.977060 32,000 265 501 0
2021-10-23 10:23:02 GMT 48.671715 -0.966291 32,000 265 501 0
2021-10-23 10:22:59 GMT 48.672134 -0.959684 32,000 265 501 0
2021-10-23 10:22:57 GMT 48.672600 -0.952703 32,000 265 501 0
2021-10-23 10:22:54 GMT 48.673279 -0.941937 32,000 265 501 0
2021-10-23 10:22:51 GMT 48.673950 -0.931525 32,000 265 501 0
2021-10-23 10:22:49 GMT 48.674423 -0.924542 32,000 265 501 0
2021-10-23 10:22:47 GMT 48.674694 -0.920033 32,000 265 500 0
2021-10-23 10:22:45 GMT 48.675159 -0.912733 32,000 265 500 0
2021-10-23 10:22:43 GMT 48.675568 -0.906161 32,000 265 500 0
2021-10-23 10:22:41 GMT 48.676601 -0.889820 32,000 265 500 0
2021-10-23 10:22:39 GMT 48.676601 -0.889820 32,000 265 500 0
2021-10-23 10:22:37 GMT 48.677021 -0.883532 32,000 265 500 0
2021-10-23 10:22:35 GMT 48.677673 -0.873485 32,000 265 500 0
2021-10-23 10:22:32 GMT 48.678223 -0.864751 32,000 265 500 -64
2021-10-23 10:22:30 GMT 48.678543 -0.859539 32,000 265 500 0
2021-10-23 10:22:27 GMT 48.679256 -0.848477 32,000 265 500 0
2021-10-23 10:22:25 GMT 48.679596 -0.843271 32,000 265 500 0
2021-10-23 10:22:22 GMT 48.680283 -0.831792 32,000 265 499 -64
2021-10-23 10:22:20 GMT 48.680740 -0.824820 32,000 265 499 -64
2021-10-23 10:22:16 GMT 48.681725 -0.809230 32,000 265 499 -64
2021-10-23 10:22:12 GMT 48.682388 -0.798833 32,000 265 499 -64
2021-10-23 10:22:10 GMT 48.682934 -0.790148 32,025 265 499 0
2021-10-23 10:22:07 GMT 48.683716 -0.777705 32,025 265 499 128
2021-10-23 10:22:02 GMT 48.684517 -0.764562 32,000 265 499 192
2021-10-23 10:21:59 GMT 48.685226 -0.753479 32,000 265 499 320
2021-10-23 10:21:56 GMT 48.685913 -0.742704 31,900 265 499 448
2021-10-23 10:21:54 GMT 48.686371 -0.735098 31,900 265 499 832
2021-10-23 10:21:51 GMT 48.687218 -0.721195 31,875 265 499 960
2021-10-23 10:21:48 GMT 48.687637 -0.714617 31,875 265 499 1152
2021-10-23 10:21:46 GMT 48.688110 -0.707351 31,825 265 499 1216
2021-10-23 10:21:44 GMT 48.688568 -0.700097 31,775 265 499 1728
2021-10-23 10:21:40 GMT 48.689529 -0.684462 31,675 265 499 1664
2021-10-23 10:21:37 GMT 48.689987 -0.676856 31,450 265 499 1792
2021-10-23 10:21:35 GMT 48.691177 -0.657419 31,450 265 499 1792
2021-10-23 10:21:32 GMT 48.691177 -0.657419 31,450 265 500 1856
2021-10-23 10:21:30 GMT 48.691681 -0.649109 31,350 265 500 1856
2021-10-23 10:21:28 GMT 48.692139 -0.641855 31,275 265 500 1920
2021-10-23 10:21:24 GMT 48.692963 -0.628263 31,100 265 501 1920
2021-10-23 10:21:20 GMT 48.693787 -0.614741 31,050 265 501 1920
2021-10-23 10:21:18 GMT 48.694199 -0.607769 30,975 265 501 1920
2021-10-23 10:21:16 GMT 48.694527 -0.602152 30,925 265 501 1920
2021-10-23 10:21:14 GMT 48.695068 -0.593473 30,575 265 503 1984
2021-10-23 10:21:11 GMT 48.695549 -0.585817 30,775 265 502 1984
2021-10-23 10:21:09 GMT 48.695923 -0.579529 30,600 265 504 1920
2021-10-23 10:21:06 GMT 48.696712 -0.566591 30,600 265 504 1728
2021-10-23 10:21:04 GMT 48.697128 -0.559598 30,525 265 504 1728
2021-10-23 10:21:01 GMT 48.697693 -0.549822 30,450 265 504 1856
2021-10-23 10:20:59 GMT 48.698090 -0.543189 30,375 265 504 1536
2021-10-23 10:20:55 GMT 48.699181 -0.525320 30,150 265 504 1536
2021-10-23 10:20:51 GMT 48.699646 -0.517625 30,150 265 504 1536
2021-10-23 10:20:49 GMT 48.700195 -0.508470 30,075 265 504 1344
2021-10-23 10:20:47 GMT 48.700562 -0.501850 30,025 265 503 1280
2021-10-23 10:20:45 GMT 48.701183 -0.491710 29,900 265 503 1216
2021-10-23 10:20:42 GMT 48.702255 -0.473187 29,900 265 501 1152
2021-10-23 10:20:39 GMT 48.702255 -0.473187 29,875 265 501 1152
2021-10-23 10:20:37 GMT 48.702671 -0.466558 29,850 265 500 1152
2021-10-23 10:20:34 GMT 48.703232 -0.457161 29,625 265 499 1216
2021-10-23 10:20:31 GMT 48.703857 -0.446003 29,600 265 499 1216
2021-10-23 10:20:29 GMT 48.704361 -0.437270 29,700 265 499 1280
2021-10-23 10:20:27 GMT 48.704910 -0.428256 29,525 266 498 1344
2021-10-23 10:20:24 GMT 48.705280 -0.422034 29,600 266 498 1344
2021-10-23 10:20:21 GMT 48.705837 -0.411987 29,525 266 498 1408
2021-10-23 10:20:18 GMT 48.706444 -0.401218 29,425 266 497 1408
2021-10-23 10:20:16 GMT 48.706833 -0.394592 29,425 266 497 1408
2021-10-23 10:20:14 GMT 48.707336 -0.386000 28,900 266 495 1344
2021-10-23 10:20:11 GMT 48.707840 -0.377655 29,300 266 496 1344
2021-10-23 10:20:09 GMT 48.708397 -0.367970 29,200 266 496 1344
2021-10-23 10:20:07 GMT 48.708771 -0.361465 29,200 266 495 1344
2021-10-23 10:20:04 GMT 48.709236 -0.352791 29,125 266 495 1344
2021-10-23 10:20:02 GMT 48.710449 -0.332125 28,975 266 494 1344
2021-10-23 10:19:59 GMT 48.710449 -0.332125 29,000 266 494 1344
2021-10-23 10:19:55 GMT 48.710953 -0.322829 28,950 266 493 1344
2021-10-23 10:19:53 GMT 48.711426 -0.315279 28,875 265 491 1344
2021-10-23 10:19:49 GMT 48.712463 -0.297406 28,775 265 492 1344
2021-10-23 10:19:46 GMT 48.712830 -0.291279 28,625 265 491 1344
2021-10-23 10:19:43 GMT 48.713562 -0.278250 28,675 265 492 1344
2021-10-23 10:19:41 GMT 48.713928 -0.272123 28,575 265 489 1280
2021-10-23 10:19:38 GMT 48.714497 -0.263238 28,525 265 489 1280
2021-10-23 10:19:36 GMT 48.714935 -0.256066 28,475 265 489 1280
2021-10-23 10:19:34 GMT 48.715439 -0.247545 28,450 265 489 1280
2021-10-23 10:19:29 GMT 48.716591 -0.229484 28,225 265 488 1280
2021-10-23 10:19:26 GMT 48.717010 -0.222690 28,225 265 487 1280
2021-10-23 10:19:23 GMT 48.717636 -0.212543 28,225 265 485 1344
2021-10-23 10:19:21 GMT 48.718174 -0.203753 28,025 265 485 1344
2021-10-23 10:19:18 GMT 48.718639 -0.195658 27,950 265 484 1344
2021-10-23 10:19:16 GMT 48.719196 -0.187201 28,075 265 485 1344
2021-10-23 10:19:13 GMT 48.720081 -0.172023 27,975 265 484 1344
2021-10-23 10:19:11 GMT 48.720703 -0.161907 27,925 265 483 1344
2021-10-23 10:19:08 GMT 48.720703 -0.161907 27,800 265 483 1344
2021-10-23 10:19:05 GMT 48.721432 -0.149833 27,800 265 482 1344
2021-10-23 10:19:03 GMT 48.721851 -0.143111 27,725 265 482 1280
2021-10-23 10:19:01 GMT 48.722260 -0.136414 27,725 265 480 1344
2021-10-23 10:18:58 GMT 48.722736 -0.128005 27,500 265 479 1280
2021-10-23 10:18:55 GMT 48.723495 -0.115990 27,575 265 479 1280
2021-10-23 10:18:53 GMT 48.723679 -0.112328 27,575 265 478 1280
2021-10-23 10:18:51 GMT 48.724274 -0.102635 27,525 265 478 1280
2021-10-23 10:18:47 GMT 48.724869 -0.092680 27,400 265 476 1280
2021-10-23 10:18:45 GMT 48.725281 -0.086060 27,400 265 476 1280
2021-10-23 10:18:42 GMT 48.725994 -0.074085 27,325 265 475 1344
2021-10-23 10:18:40 GMT 48.726788 -0.060497 27,275 265 474 1344
2021-10-23 10:18:38 GMT 48.726788 -0.060497 27,250 265 474 1344
2021-10-23 10:18:34 GMT 48.727440 -0.049655 27,175 265 473 1408
2021-10-23 10:18:31 GMT 48.728210 -0.036410 26,975 266 471 1536
2021-10-23 10:18:29 GMT 48.728508 -0.031152 26,975 266 471 1536
2021-10-23 10:18:26 GMT 48.729717 -0.010480 26,875 266 471 1536
2021-10-23 10:18:23 GMT 48.729717 -0.010480 26,875 266 471 1600
2021-10-23 10:18:21 GMT 48.729904 -0.007183 26,775 266 470 1600
2021-10-23 10:18:18 GMT 48.730820 0.008240 26,725 266 470 1536
2021-10-23 10:18:15 GMT 48.731140 0.014085 26,675 265 469 1536
2021-10-23 10:18:11 GMT 48.731861 0.026526 26,600 266 468 1536
2021-10-23 10:18:07 GMT 48.732605 0.039579 26,450 266 468 1536
2021-10-23 10:18:05 GMT 48.732979 0.046114 26,375 266 467 1536
2021-10-23 10:18:02 GMT 48.733658 0.057819 26,325 266 466 1600
2021-10-23 10:17:59 GMT 48.734299 0.069228 26,250 266 465 1600
2021-10-23 10:17:56 GMT 48.734653 0.076037 26,175 266 465 1664
2021-10-23 10:17:54 GMT 48.735580 0.092539 25,925 266 465 1664
2021-10-23 10:17:51 GMT 48.735580 0.092539 26,050 266 464 1728
2021-10-23 10:17:47 GMT 48.736359 0.106483 25,900 266 463 1664
2021-10-23 10:17:45 GMT 48.736679 0.112610 25,850 266 463 1664
2021-10-23 10:17:40 GMT 48.737503 0.127751 25,725 266 463 1664
2021-10-23 10:17:38 GMT 48.737865 0.134510 25,700 266 462 1664
2021-10-23 10:17:35 GMT 48.738373 0.144160 25,350 266 461 1728
2021-10-23 10:17:33 GMT 48.738693 0.149654 25,550 266 461 1728
2021-10-23 10:17:30 GMT 48.739868 0.171155 25,350 265 459 1856
2021-10-23 10:17:25 GMT 48.740616 0.183669 25,225 265 459 1856
2021-10-23 10:17:23 GMT 48.740616 0.183669 25,225 265 459 1856
2021-10-23 10:17:20 GMT 48.741211 0.192965 25,100 266 459 1856
2021-10-23 10:17:18 GMT 48.741623 0.199655 24,950 266 458 1856
2021-10-23 10:17:14 GMT 48.742428 0.214956 24,925 267 457 1856
2021-10-23 10:17:11 GMT 48.742767 0.222966 24,850 267 457 1856
2021-10-23 10:17:09 GMT 48.742985 0.229340 24,775 268 457 1856
2021-10-23 10:17:07 GMT 48.743179 0.234445 24,725 270 455 1920
2021-10-23 10:17:04 GMT 48.743591 0.252975 24,500 269 456 1920
2021-10-23 10:17:01 GMT 48.743591 0.252975 24,450 270 455 1984
2021-10-23 10:16:58 GMT 48.743732 0.262154 24,450 270 455 1984
2021-10-23 10:16:56 GMT 48.743778 0.268515 24,275 270 455 1984
2021-10-23 10:16:53 GMT 48.743774 0.278672 24,175 273 452 2112
2021-10-23 10:16:49 GMT 48.743546 0.299305 23,950 274 452 2112
2021-10-23 10:16:47 GMT 48.743546 0.299305 24,050 273 453 2112
2021-10-23 10:16:44 GMT 48.743362 0.308462 23,950 273 452 2112
2021-10-23 10:16:39 GMT 48.742939 0.322073 23,725 274 451 2112
2021-10-23 10:16:37 GMT 48.742722 0.328040 23,600 275 451 2048
2021-10-23 10:16:34 GMT 48.742104 0.341227 23,625 275 451 2048
2021-10-23 10:16:31 GMT 48.741806 0.346281 23,550 276 450 1920
2021-10-23 10:16:29 GMT 48.741440 0.352548 23,450 276 450 1920
2021-10-23 10:16:26 GMT 48.740471 0.365946 23,275 278 448 1856
2021-10-23 10:16:22 GMT 48.739792 0.374380 23,275 278 448 1856
2021-10-23 10:16:20 GMT 48.739075 0.382425 23,175 278 447 1792
2021-10-23 10:16:16 GMT 48.738098 0.392973 23,075 279 446 1792
2021-10-23 10:16:13 GMT 48.736862 0.406283 22,950 279 444 1856
2021-10-23 10:16:08 GMT 48.735817 0.417336 22,700 279 444 1856
2021-10-23 10:16:06 GMT 48.734886 0.426877 22,750 279 443 1856
2021-10-23 10:16:03 GMT 48.734299 0.432974 22,550 279 442 1856
2021-10-23 10:16:00 GMT 48.733292 0.443749 22,475 278 442 1856
2021-10-23 10:15:57 GMT 48.732605 0.451073 22,475 278 442 1856
2021-10-23 10:15:55 GMT 48.731964 0.458116 22,400 278 440 1856
2021-10-23 10:15:52 GMT 48.730774 0.471849 22,275 277 440 1984
2021-10-23 10:15:49 GMT 48.729485 0.488313 22,075 277 438 2048
2021-10-23 10:15:46 GMT 48.729485 0.488313 22,100 277 438 2112
2021-10-23 10:15:44 GMT 48.729160 0.492289 22,025 276 438 2176
2021-10-23 10:15:41 GMT 48.728439 0.502061 21,950 277 438 2176
2021-10-23 10:15:38 GMT 48.727753 0.512061 21,825 276 437 2240
2021-10-23 10:15:35 GMT 48.726971 0.523658 21,575 275 436 2176
2021-10-23 10:15:29 GMT 48.726059 0.538260 21,400 275 436 2112
2021-10-23 10:15:23 GMT 48.724457 0.569265 21,200 274 435 2176
2021-10-23 10:15:19 GMT 48.723900 0.581047 20,975 274 435 2176
2021-10-23 10:15:15 GMT 48.723633 0.586853 20,775 274 432 2176
2021-10-23 10:15:13 GMT 48.723633 0.586853 20,775 274 432 2176
2021-10-23 10:15:09 GMT 48.723175 0.597417 20,775 274 432 2176
2021-10-23 10:15:06 GMT 48.722672 0.608614 20,650 274 432 2240
2021-10-23 10:15:04 GMT 48.722408 0.615234 20,600 274 432 2240
2021-10-23 10:15:01 GMT 48.722031 0.623685 20,475 274 431 2240
2021-10-23 10:14:57 GMT 48.721573 0.635689 20,400 274 431 2240
2021-10-23 10:14:54 GMT 48.720966 0.650434 20,175 271 429 2368
2021-10-23 10:14:52 GMT 48.720966 0.650434 20,025 272 429 2368
2021-10-23 10:14:48 GMT 48.720409 0.675081 19,825 271 429 2368
2021-10-23 10:14:44 GMT 48.720409 0.675081 19,825 269 429 2432
2021-10-23 10:14:41 GMT 48.720474 0.684040 19,700 269 429 2432
2021-10-23 10:14:37 GMT 48.720612 0.694533 19,500 269 429 2432
2021-10-23 10:14:33 GMT 48.721069 0.717280 19,400 269 427 2304
2021-10-23 10:14:30 GMT 48.721069 0.717280 19,250 269 427 2304
2021-10-23 10:14:27 GMT 48.721252 0.727140 19,125 269 426 2304
2021-10-23 10:14:22 GMT 48.721478 0.740204 18,975 269 425 2240
2021-10-23 10:14:18 GMT 48.721760 0.752708 18,800 269 424 2240
2021-10-23 10:14:13 GMT 48.722031 0.769254 18,600 269 423 2304
2021-10-23 10:14:11 GMT 48.722076 0.771085 18,575 269 423 2304
2021-10-23 10:14:08 GMT 48.722260 0.781367 18,300 269 421 2496
2021-10-23 10:14:03 GMT 48.722645 0.804098 18,050 269 421 2560
2021-10-23 10:14:00 GMT 48.722645 0.804098 18,050 269 420 2624
2021-10-23 10:13:57 GMT 48.722809 0.814045 17,975 269 420 2624
2021-10-23 10:13:52 GMT 48.722992 0.827285 17,800 269 420 2624
2021-10-23 10:13:49 GMT 48.723083 0.835806 17,650 269 420 2560
2021-10-23 10:13:46 GMT 48.723221 0.845454 17,500 270 419 2560
2021-10-23 10:13:43 GMT 48.723312 0.853624 17,375 270 419 2496
2021-10-23 10:13:40 GMT 48.723526 0.873485 17,000 270 416 2304
2021-10-23 10:13:36 GMT 48.723526 0.873485 17,125 270 417 2368
2021-10-23 10:13:31 GMT 48.723713 0.890109 16,775 270 415 2368
2021-10-23 10:13:28 GMT 48.723816 0.900527 16,750 270 414 2368
2021-10-23 10:13:22 GMT 48.723991 0.917575 16,500 270 413 2560
2021-10-23 10:13:16 GMT 48.724182 0.932570 16,175 270 411 2624
2021-10-23 10:13:13 GMT 48.724274 0.941514 15,800 270 411 2688
2021-10-23 10:13:10 GMT 48.724411 0.952994 15,650 270 409 2880
2021-10-23 10:13:05 GMT 48.724503 0.962712 15,800 270 409 2880
2021-10-23 10:13:02 GMT 48.724594 0.972994 15,625 270 409 2880
2021-10-23 10:12:59 GMT 48.724640 0.980178 14,625 270 409 2816
2021-10-23 10:12:56 GMT 48.724731 0.988981 15,350 270 408 2688
2021-10-23 10:12:51 GMT 48.724869 1.004686 15,125 270 407 2624
2021-10-23 10:12:47 GMT 48.725006 1.018066 14,350 270 406 2624
2021-10-23 10:12:42 GMT 48.725159 1.031342 14,700 270 404 2496
2021-10-23 10:12:39 GMT 48.725235 1.037292 14,625 270 403 2304
2021-10-23 10:12:36 GMT 48.725342 1.048038 14,400 269 392 3072
2021-10-23 10:12:30 GMT 48.725529 1.066541 14,225 270 399 2304
2021-10-23 10:12:27 GMT 48.725620 1.075215 13,725 270 397 2688
2021-10-23 10:12:23 GMT 48.725807 1.094585 13,850 269 396 2752
2021-10-23 10:12:19 GMT 48.725807 1.094585 13,700 269 396 2752
2021-10-23 10:12:16 GMT 48.725922 1.102084 13,450 269 394 2816
2021-10-23 10:12:11 GMT 48.726105 1.117014 13,425 269 394 2816
2021-10-23 10:12:08 GMT 48.726242 1.126310 13,275 269 393 2880
2021-10-23 10:12:04 GMT 48.726425 1.137015 13,075 269 391 3136
2021-10-23 10:12:01 GMT 48.726505 1.143084 12,725 269 391 3136
2021-10-23 10:11:58 GMT 48.726646 1.152119 12,800 269 391 3136
2021-10-23 10:11:55 GMT 48.726788 1.161081 12,625 269 390 2816
2021-10-23 10:11:49 GMT 48.726974 1.176946 12,325 270 389 2368
2021-10-23 10:11:46 GMT 48.727066 1.185890 12,225 271 388 1344
2021-10-23 10:11:41 GMT 48.727158 1.199461 12,100 271 387 960
2021-10-23 10:11:37 GMT 48.727066 1.209764 12,050 272 387 704
2021-10-23 10:11:34 GMT 48.726925 1.217892 12,025 274 385 320
2021-10-23 10:11:31 GMT 48.726273 1.234010 12,000 276 385 64
2021-10-23 10:11:28 GMT 48.726273 1.234010 12,000 277 385 0
2021-10-23 10:11:25 GMT 48.725555 1.243638 12,000 279 384 0
2021-10-23 10:11:21 GMT 48.724640 1.253991 12,000 279 384 0
2021-10-23 10:11:18 GMT 48.724133 1.259091 12,000 279 384 0
2021-10-23 10:11:15 GMT 48.723293 1.268415 12,000 279 385 0
2021-10-23 10:11:12 GMT 48.722351 1.278006 12,000 279 385 0
2021-10-23 10:11:08 GMT 48.721619 1.285753 12,000 279 385 0
2021-10-23 10:11:04 GMT 48.719711 1.306289 12,000 279 386 0
2021-10-23 10:11:01 GMT 48.719711 1.306289 12,000 279 386 0
2021-10-23 10:10:58 GMT 48.719059 1.313228 12,000 279 386 0
2021-10-23 10:10:55 GMT 48.718185 1.322303 12,000 279 386 0
2021-10-23 10:10:50 GMT 48.717056 1.334116 12,000 279 386 0
2021-10-23 10:10:47 GMT 48.716217 1.343219 12,000 279 386 0
2021-10-23 10:10:44 GMT 48.715118 1.354417 12,000 279 386 0
2021-10-23 10:10:40 GMT 48.714401 1.362160 12,000 279 386 0
2021-10-23 10:10:37 GMT 48.713657 1.369966 12,000 279 386 0
2021-10-23 10:10:34 GMT 48.713013 1.376883 12,000 279 387 0
2021-10-23 10:10:28 GMT 48.711411 1.393433 12,000 279 386 0
2021-10-23 10:10:25 GMT 48.710354 1.404660 12,000 279 386 0
2021-10-23 10:10:20 GMT 48.709396 1.414278 12,000 279 386 0
2021-10-23 10:10:17 GMT 48.708492 1.423886 12,000 279 386 0
2021-10-23 10:10:12 GMT 48.707245 1.436744 12,000 279 386 0
2021-10-23 10:10:09 GMT 48.706581 1.443690 12,000 279 386 0
2021-10-23 10:10:06 GMT 48.705650 1.453520 12,000 279 386 0
2021-10-23 10:10:03 GMT 48.704906 1.461326 12,000 279 386 0
2021-10-23 10:10:00 GMT 48.704041 1.470126 12,000 279 386 0
2021-10-23 10:09:56 GMT 48.702950 1.481275 12,000 279 386 0
2021-10-23 10:09:52 GMT 48.702209 1.489352 12,000 279 386 0
2021-10-23 10:09:46 GMT 48.700577 1.506139 12,000 279 386 0
2021-10-23 10:09:43 GMT 48.699646 1.515691 12,000 279 386 0
2021-10-23 10:09:40 GMT 48.697971 1.532810 12,000 279 386 -64
2021-10-23 10:09:36 GMT 48.697971 1.532810 12,000 279 386 -64
2021-10-23 10:09:32 GMT 48.696991 1.543227 12,000 279 386 -64
2021-10-23 10:09:28 GMT 48.696060 1.552758 12,000 279 386 -64
2021-10-23 10:09:25 GMT 48.695129 1.562155 12,000 279 386 -64
2021-10-23 10:09:22 GMT 48.694340 1.570105 12,000 279 386 -64
2021-10-23 10:09:15 GMT 48.692524 1.588825 12,025 279 386 -128
2021-10-23 10:09:12 GMT 48.691681 1.597384 12,025 279 386 -128
2021-10-23 10:09:08 GMT 48.690800 1.606461 12,025 279 386 -128
2021-10-23 10:09:05 GMT 48.690033 1.614427 12,025 279 386 -64
2021-10-23 10:09:02 GMT 48.689125 1.623519 12,025 279 386 -64
2021-10-23 10:08:59 GMT 48.688286 1.632337 12,025 279 387 64
2021-10-23 10:08:56 GMT 48.687286 1.642526 12,000 279 386 384
2021-10-23 10:08:52 GMT 48.686520 1.650262 12,000 279 387 256
2021-10-23 10:08:48 GMT 48.685501 1.660907 11,975 279 386 448
2021-10-23 10:08:45 GMT 48.684654 1.669777 11,950 279 386 576
2021-10-23 10:08:41 GMT 48.683670 1.679570 11,925 279 385 896
2021-10-23 10:08:38 GMT 48.682842 1.688136 11,850 279 383 1088
2021-10-23 10:08:35 GMT 48.682068 1.696050 11,675 279 376 1152
2021-10-23 10:08:32 GMT 48.681210 1.705049 11,750 279 379 1152
2021-10-23 10:08:28 GMT 48.680233 1.714735 11,675 279 375 1152
2021-10-23 10:08:25 GMT 48.679504 1.722037 11,625 279 372 1152
2021-10-23 10:08:21 GMT 48.678558 1.731792 11,550 279 369 1152
2021-10-23 10:08:18 GMT 48.677902 1.738164 11,500 279 366 1216
2021-10-23 10:08:15 GMT 48.676975 1.747766 11,425 279 362 1216
2021-10-23 10:08:11 GMT 48.676071 1.756756 11,350 279 359 1280
2021-10-23 10:08:07 GMT 48.674973 1.767742 11,250 279 353 1344
2021-10-23 10:08:04 GMT 48.674416 1.773352 11,075 279 345 1280
2021-10-23 10:08:01 GMT 48.673576 1.781881 11,125 279 350 1280
2021-10-23 10:07:57 GMT 48.672321 1.794458 11,025 279 343 1216
2021-10-23 10:07:54 GMT 48.671852 1.798722 10,950 279 332 1024
2021-10-23 10:07:51 GMT 48.671127 1.806335 10,925 279 337 1152
2021-10-23 10:07:47 GMT 48.670273 1.814696 10,775 279 330 1024
2021-10-23 10:07:44 GMT 48.669479 1.822604 10,800 279 328 1024
2021-10-23 10:07:41 GMT 48.668747 1.829646 10,750 279 326 960
2021-10-23 10:07:37 GMT 48.667969 1.837534 10,675 279 310 1024
2021-10-23 10:07:34 GMT 48.667282 1.844717 10,650 279 319 960
2021-10-23 10:07:30 GMT 48.666500 1.852208 10,600 279 314 1024
2021-10-23 10:07:27 GMT 48.665756 1.859797 10,425 279 308 1024
2021-10-23 10:07:23 GMT 48.664993 1.867535 10,050 279 294 2240
2021-10-23 10:07:20 GMT 48.664261 1.874930 10,425 279 301 960
2021-10-23 10:07:15 GMT 48.663162 1.885705 10,275 279 296 1856
2021-10-23 10:07:12 GMT 48.662430 1.892888 10,200 279 294 2240
2021-10-23 10:07:08 GMT 48.661613 1.900996 10,050 279 293 2304
2021-10-23 10:07:05 GMT 48.661194 1.905283 9,625 279 293 2304
2021-10-23 10:07:02 GMT 48.660553 1.911551 9,775 279 291 2304
2021-10-23 10:06:59 GMT 48.659939 1.917620 9,600 279 290 2368
2021-10-23 10:06:55 GMT 48.658913 1.927450 9,525 279 288 2432
2021-10-23 10:06:52 GMT 48.658447 1.932437 9,375 279 289 2368
2021-10-23 10:06:49 GMT 48.657898 1.938031 9,325 279 288 2432
2021-10-23 10:06:45 GMT 48.657074 1.946834 9,150 279 288 2496
2021-10-23 10:06:41 GMT 48.656445 1.952964 8,300 279 285 2560
2021-10-23 10:06:36 GMT 48.655376 1.964095 8,575 279 286 2560
2021-10-23 10:06:33 GMT 48.654861 1.969444 8,400 279 284 2560
2021-10-23 10:06:29 GMT 48.654190 1.976553 8,500 279 284 2560
2021-10-23 10:06:26 GMT 48.653549 1.983032 8,250 278 283 2560
2021-10-23 10:06:23 GMT 48.652954 1.989754 8,225 278 283 2560
2021-10-23 10:06:17 GMT 48.651993 1.999934 8,000 278 283 2560
2021-10-23 10:06:14 GMT 48.651279 2.007968 7,775 278 282 2496
2021-10-23 10:06:10 GMT 48.650764 2.013823 7,525 278 281 2432
2021-10-23 10:06:06 GMT 48.650070 2.021625 7,325 278 280 2368
2021-10-23 10:06:03 GMT 48.649418 2.029001 7,400 278 279 2432
2021-10-23 10:06:00 GMT 48.648998 2.033844 7,300 278 278 2496
2021-10-23 10:05:56 GMT 48.648239 2.042330 7,075 279 277 2752
2021-10-23 10:05:53 GMT 48.647552 2.049373 6,925 279 276 2688
2021-10-23 10:05:50 GMT 48.647232 2.052824 6,850 279 276 2560
2021-10-23 10:05:46 GMT 48.646454 2.061063 6,150 278 275 2880
2021-10-23 10:05:43 GMT 48.645859 2.067190 6,000 276 275 2560
2021-10-23 10:05:40 GMT 48.645458 2.071935 6,150 278 276 3072
2021-10-23 10:05:36 GMT 48.644714 2.080102 6,150 277 275 2688
2021-10-23 10:05:33 GMT 48.644302 2.085078 6,025 276 275 2560
2021-10-23 10:05:30 GMT 48.643845 2.090994 5,925 274 274 2496
2021-10-23 10:05:23 GMT 48.643570 2.105572 5,575 265 270 2176
2021-10-23 10:05:20 GMT 48.643784 2.110098 5,575 265 270 2176
2021-10-23 10:05:14 GMT 48.644897 2.121277 5,325 252 263 1984
2021-10-23 10:05:11 GMT 48.646111 2.128529 5,225 252 263 1984
2021-10-23 10:05:03 GMT 48.649509 2.142479 4,850 247 260 3264
2021-10-23 10:05:00 GMT 48.650349 2.145442 4,775 247 261 3328
2021-10-23 10:04:52 GMT 48.654770 2.160693 4,325 245 259 2112
2021-10-23 10:04:49 GMT 48.655746 2.163884 4,075 244 258 1664
2021-10-23 10:04:43 GMT 48.658813 2.173251 4,150 240 252 832
2021-10-23 10:04:40 GMT 48.661335 2.179702 4,100 239 247 576
2021-10-23 10:04:37 GMT 48.662964 2.183605 4,075 238 241 640
2021-10-23 10:04:33 GMT 48.664967 2.188303 3,950 237 231 1536
2021-10-23 10:04:29 GMT 48.667374 2.193885 3,925 237 233 1472
2021-10-23 10:04:26 GMT 48.669338 2.198494 3,850 237 228 1408
2021-10-23 10:04:22 GMT 48.671585 2.203604 3,725 237 224 1088
2021-10-23 10:04:19 GMT 48.673370 2.207689 3,700 237 222 896
2021-10-23 10:04:12 GMT 48.677299 2.216781 3,625 238 209 896
2021-10-23 10:04:09 GMT 48.678589 2.219731 3,600 238 206 1024
2021-10-23 10:04:03 GMT 48.681679 2.226972 3,475 238 202 1280
2021-10-23 10:04:00 GMT 48.683586 2.231453 3,400 238 195 1152
2021-10-23 10:03:57 GMT 48.684814 2.234309 3,350 238 191 1216
2021-10-23 10:03:54 GMT 48.686520 2.238464 3,075 238 185 2240
2021-10-23 10:03:50 GMT 48.688148 2.242367 3,175 238 186 1792
2021-10-23 10:03:47 GMT 48.689850 2.246282 3,075 238 186 1984
2021-10-23 10:03:42 GMT 48.692276 2.251986 2,850 237 186 2368
2021-10-23 10:03:39 GMT 48.693283 2.254380 2,800 237 186 2368
2021-10-23 10:03:34 GMT 48.695827 2.260148 2,575 237 186 2432
2021-10-23 10:03:30 GMT 48.697643 2.264412 2,275 237 187 2304
2021-10-23 10:03:23 GMT 48.700905 2.271857 2,175 237 186 2176
2021-10-23 10:03:19 GMT 48.702717 2.276121 2,050 237 186 2048
2021-10-23 10:03:11 GMT 48.706696 2.285227 1,675 237 185 2752
2021-10-23 10:03:08 GMT 48.707840 2.287903 1,675 237 185 2752
2021-10-23 10:03:01 GMT 48.711426 2.295998 1,250 236 185 2816
2021-10-23 10:02:58 GMT 48.712601 2.298537 1,150 237 185 2688
2021-10-23 10:02:51 GMT 48.715893 2.305972 825 240 185 2432

Making use of Plane Finder data

You are free to use the raw flight data, aircraft information and images provided in this report for your own purposes provided the data is correctly attributed to Plane Finder. We ask that you please credit Plane Finder and link to planefinder.net in close proximity to the content.

Optionally one of the following logos (no smaller then 150x24px) can be used and must link to planefinder.net

Embedding the Plane Finder map

You are welcome to embed the Plane Finder playback map on your website to offer visitors a more interactive experience. We suggest using the following HTML code:

<iframe src="//planefinder.net/data/report/AF842-F-GSQX-7700-squawk-2021-10-23/map" width="800" height="600" seamless="seamless"></iframe>

Where our data comes from

Plane Finder has a global network of data feeds and antenna radars that receive data broadcast directly from aircraft. The primary technologies used are ADS-B and MLAT. We also show feeds from the FAA and a FLARM glider feed.

Click here to find out more about the Plane Finder network.

How we collect our data